<?xml version="1.0" encoding="UTF-8" standalone="no" ?>
<gpx xmlns="http://www.topografix.com/GPX/1/1" xmlns:xsi="http://www.w3.org/2001/XMLSchema-instance" xsi:schemaLocation="http://www.topografix.com/GPX/1/1 http://www.topografix.com/GPX/1/1/gpx.xsd" version="1.1" creator="VisuGPX - https://www.visugpx.com">
  <metadata>
    <name>Trail de l\'Escarène 2013</name>
    <desc><![CDATA[Manque le départ (oublié d\'allumer le GPS !)]]></desc>
  </metadata>
  <trk>
    <name><![CDATA[Trail de l'Escarène 2013]]></name>
    <trkseg>
      <trkpt lat="43.8432" lon="7.34137">
        <ele>391.87451171875</ele>
        <time>2013-05-12T07:05:27Z</time>
      </trkpt>
      <trkpt lat="43.84334" lon="7.34125">
        <ele>392.8359375</ele>
        <time>2013-05-12T07:05:34Z</time>
      </trkpt>
      <trkpt lat="43.8437" lon="7.34134">
        <ele>395.71984863281</ele>
        <time>2013-05-12T07:05:48Z</time>
      </trkpt>
      <trkpt lat="43.84381" lon="7.34151">
        <ele>395.71984863281</ele>
        <time>2013-05-12T07:05:49Z</time>
      </trkpt>
      <trkpt lat="43.84379" lon="7.34141">
        <ele>396.20056152344</ele>
        <time>2013-05-12T07:05:52Z</time>
      </trkpt>
      <trkpt lat="43.84386" lon="7.34133">
        <ele>397.64245605469</ele>
        <time>2013-05-12T07:05:56Z</time>
      </trkpt>
      <trkpt lat="43.84397" lon="7.34129">
        <ele>399.56506347656</ele>
        <time>2013-05-12T07:06:01Z</time>
      </trkpt>
      <trkpt lat="43.84439" lon="7.34125">
        <ele>401.96850585938</ele>
        <time>2013-05-12T07:06:13Z</time>
      </trkpt>
      <trkpt lat="43.84471" lon="7.34128">
        <ele>403.89111328125</ele>
        <time>2013-05-12T07:06:25Z</time>
      </trkpt>
      <trkpt lat="43.84473" lon="7.34127">
        <ele>404.85229492188</ele>
        <time>2013-05-12T07:06:27Z</time>
      </trkpt>
      <trkpt lat="43.84479" lon="7.34129">
        <ele>405.81372070312</ele>
        <time>2013-05-12T07:06:30Z</time>
      </trkpt>
      <trkpt lat="43.84506" lon="7.3414">
        <ele>406.29431152344</ele>
        <time>2013-05-12T07:06:38Z</time>
      </trkpt>
      <trkpt lat="43.8452" lon="7.34154">
        <ele>406.77490234375</ele>
        <time>2013-05-12T07:06:44Z</time>
      </trkpt>
      <trkpt lat="43.84529" lon="7.34154">
        <ele>407.25561523438</ele>
        <time>2013-05-12T07:06:48Z</time>
      </trkpt>
      <trkpt lat="43.84544" lon="7.34166">
        <ele>408.69763183594</ele>
        <time>2013-05-12T07:06:53Z</time>
      </trkpt>
      <trkpt lat="43.84579" lon="7.34185">
        <ele>411.10095214844</ele>
        <time>2013-05-12T07:07:07Z</time>
      </trkpt>
      <trkpt lat="43.84601" lon="7.34163">
        <ele>412.06225585938</ele>
        <time>2013-05-12T07:07:16Z</time>
      </trkpt>
      <trkpt lat="43.8459" lon="7.34118">
        <ele>411.58166503906</ele>
        <time>2013-05-12T07:07:26Z</time>
      </trkpt>
      <trkpt lat="43.84607" lon="7.34126">
        <ele>410.62023925781</ele>
        <time>2013-05-12T07:07:34Z</time>
      </trkpt>
      <trkpt lat="43.84633" lon="7.34065">
        <ele>411.10095214844</ele>
        <time>2013-05-12T07:07:44Z</time>
      </trkpt>
      <trkpt lat="43.84658" lon="7.34069">
        <ele>411.10095214844</ele>
        <time>2013-05-12T07:07:53Z</time>
      </trkpt>
      <trkpt lat="43.84659" lon="7.34057">
        <ele>410.62023925781</ele>
        <time>2013-05-12T07:07:57Z</time>
      </trkpt>
      <trkpt lat="43.84659" lon="7.34042">
        <ele>410.62023925781</ele>
        <time>2013-05-12T07:08:02Z</time>
      </trkpt>
      <trkpt lat="43.84663" lon="7.34037">
        <ele>411.58166503906</ele>
        <time>2013-05-12T07:08:05Z</time>
      </trkpt>
      <trkpt lat="43.84668" lon="7.34029">
        <ele>411.10095214844</ele>
        <time>2013-05-12T07:08:10Z</time>
      </trkpt>
      <trkpt lat="43.84673" lon="7.3403">
        <ele>411.58166503906</ele>
        <time>2013-05-12T07:08:12Z</time>
      </trkpt>
      <trkpt lat="43.84678" lon="7.34021">
        <ele>411.58166503906</ele>
        <time>2013-05-12T07:08:16Z</time>
      </trkpt>
      <trkpt lat="43.84684" lon="7.34021">
        <ele>411.10095214844</ele>
        <time>2013-05-12T07:08:19Z</time>
      </trkpt>
      <trkpt lat="43.84701" lon="7.33976">
        <ele>410.1396484375</ele>
        <time>2013-05-12T07:08:29Z</time>
      </trkpt>
      <trkpt lat="43.84706" lon="7.33974">
        <ele>408.21704101562</ele>
        <time>2013-05-12T07:08:32Z</time>
      </trkpt>
      <trkpt lat="43.84715" lon="7.33972">
        <ele>405.3330078125</ele>
        <time>2013-05-12T07:08:37Z</time>
      </trkpt>
      <trkpt lat="43.847" lon="7.33992">
        <ele>402.44909667969</ele>
        <time>2013-05-12T07:08:46Z</time>
      </trkpt>
      <trkpt lat="43.84743" lon="7.34027">
        <ele>398.60375976562</ele>
        <time>2013-05-12T07:08:54Z</time>
      </trkpt>
      <trkpt lat="43.84762" lon="7.33981">
        <ele>396.20056152344</ele>
        <time>2013-05-12T07:09:02Z</time>
      </trkpt>
      <trkpt lat="43.84762" lon="7.33981">
        <ele>392.35534667969</ele>
        <time>2013-05-12T07:09:08Z</time>
      </trkpt>
      <trkpt lat="43.84762" lon="7.33981">
        <ele>392.35534667969</ele>
        <time>2013-05-12T07:09:09Z</time>
      </trkpt>
      <trkpt lat="43.84762" lon="7.33981">
        <ele>389.95190429688</ele>
        <time>2013-05-12T07:09:13Z</time>
      </trkpt>
      <trkpt lat="43.84762" lon="7.33981">
        <ele>392.35534667969</ele>
        <time>2013-05-12T07:09:21Z</time>
      </trkpt>
      <trkpt lat="43.84762" lon="7.33981">
        <ele>393.31652832031</ele>
        <time>2013-05-12T07:09:23Z</time>
      </trkpt>
      <trkpt lat="43.84762" lon="7.33981">
        <ele>396.68115234375</ele>
        <time>2013-05-12T07:09:29Z</time>
      </trkpt>
      <trkpt lat="43.84762" lon="7.33981">
        <ele>398.12316894531</ele>
        <time>2013-05-12T07:09:33Z</time>
      </trkpt>
      <trkpt lat="43.84782" lon="7.33958">
        <ele>399.08435058594</ele>
        <time>2013-05-12T07:09:37Z</time>
      </trkpt>
      <trkpt lat="43.84783" lon="7.33958">
        <ele>400.52648925781</ele>
        <time>2013-05-12T07:09:41Z</time>
      </trkpt>
      <trkpt lat="43.84783" lon="7.33958">
        <ele>403.41040039062</ele>
        <time>2013-05-12T07:09:47Z</time>
      </trkpt>
      <trkpt lat="43.84784" lon="7.33956">
        <ele>405.3330078125</ele>
        <time>2013-05-12T07:09:53Z</time>
      </trkpt>
      <trkpt lat="43.84784" lon="7.33956">
        <ele>406.77490234375</ele>
        <time>2013-05-12T07:09:58Z</time>
      </trkpt>
      <trkpt lat="43.84808" lon="7.33931">
        <ele>410.62023925781</ele>
        <time>2013-05-12T07:10:10Z</time>
      </trkpt>
      <trkpt lat="43.84809" lon="7.3393">
        <ele>411.10095214844</ele>
        <time>2013-05-12T07:10:12Z</time>
      </trkpt>
      <trkpt lat="43.84811" lon="7.33927">
        <ele>412.06225585938</ele>
        <time>2013-05-12T07:10:16Z</time>
      </trkpt>
      <trkpt lat="43.84809" lon="7.33929">
        <ele>413.50427246094</ele>
        <time>2013-05-12T07:10:19Z</time>
      </trkpt>
      <trkpt lat="43.84777" lon="7.33801">
        <ele>413.98486328125</ele>
        <time>2013-05-12T07:10:23Z</time>
      </trkpt>
      <trkpt lat="43.848" lon="7.33911">
        <ele>414.46545410156</ele>
        <time>2013-05-12T07:10:26Z</time>
      </trkpt>
      <trkpt lat="43.84802" lon="7.33909">
        <ele>415.90747070312</ele>
        <time>2013-05-12T07:10:29Z</time>
      </trkpt>
      <trkpt lat="43.84804" lon="7.33908">
        <ele>419.75280761719</ele>
        <time>2013-05-12T07:10:39Z</time>
      </trkpt>
      <trkpt lat="43.84804" lon="7.33908">
        <ele>423.11743164062</ele>
        <time>2013-05-12T07:10:49Z</time>
      </trkpt>
      <trkpt lat="43.84804" lon="7.33908">
        <ele>424.55944824219</ele>
        <time>2013-05-12T07:10:52Z</time>
      </trkpt>
      <trkpt lat="43.84804" lon="7.33908">
        <ele>425.04016113281</ele>
        <time>2013-05-12T07:10:55Z</time>
      </trkpt>
      <trkpt lat="43.84804" lon="7.33908">
        <ele>427.443359375</ele>
        <time>2013-05-12T07:11:00Z</time>
      </trkpt>
      <trkpt lat="43.84804" lon="7.33908">
        <ele>427.92395019531</ele>
        <time>2013-05-12T07:11:03Z</time>
      </trkpt>
      <trkpt lat="43.8483" lon="7.33912">
        <ele>431.28857421875</ele>
        <time>2013-05-12T07:11:12Z</time>
      </trkpt>
      <trkpt lat="43.8483" lon="7.33912">
        <ele>431.76916503906</ele>
        <time>2013-05-12T07:11:14Z</time>
      </trkpt>
      <trkpt lat="43.8483" lon="7.33912">
        <ele>433.69189453125</ele>
        <time>2013-05-12T07:11:20Z</time>
      </trkpt>
      <trkpt lat="43.84729" lon="7.33781">
        <ele>438.01782226562</ele>
        <time>2013-05-12T07:11:32Z</time>
      </trkpt>
      <trkpt lat="43.84837" lon="7.33841">
        <ele>440.42126464844</ele>
        <time>2013-05-12T07:11:41Z</time>
      </trkpt>
      <trkpt lat="43.84838" lon="7.33841">
        <ele>440.42126464844</ele>
        <time>2013-05-12T07:11:42Z</time>
      </trkpt>
      <trkpt lat="43.84849" lon="7.33842">
        <ele>444.26647949219</ele>
        <time>2013-05-12T07:11:52Z</time>
      </trkpt>
      <trkpt lat="43.8485" lon="7.3384">
        <ele>445.22766113281</ele>
        <time>2013-05-12T07:11:55Z</time>
      </trkpt>
      <trkpt lat="43.8486" lon="7.33831">
        <ele>448.59240722656</ele>
        <time>2013-05-12T07:12:05Z</time>
      </trkpt>
      <trkpt lat="43.8486" lon="7.33799">
        <ele>451.47631835938</ele>
        <time>2013-05-12T07:12:14Z</time>
      </trkpt>
      <trkpt lat="43.84862" lon="7.33785">
        <ele>454.8408203125</ele>
        <time>2013-05-12T07:12:24Z</time>
      </trkpt>
      <trkpt lat="43.84863" lon="7.3378">
        <ele>455.80224609375</ele>
        <time>2013-05-12T07:12:29Z</time>
      </trkpt>
      <trkpt lat="43.84864" lon="7.33777">
        <ele>457.72497558594</ele>
        <time>2013-05-12T07:12:32Z</time>
      </trkpt>
      <trkpt lat="43.84866" lon="7.33775">
        <ele>459.64758300781</ele>
        <time>2013-05-12T07:12:37Z</time>
      </trkpt>
      <trkpt lat="43.84869" lon="7.33765">
        <ele>462.53137207031</ele>
        <time>2013-05-12T07:12:47Z</time>
      </trkpt>
      <trkpt lat="43.8487" lon="7.33755">
        <ele>466.37670898438</ele>
        <time>2013-05-12T07:12:56Z</time>
      </trkpt>
      <trkpt lat="43.84872" lon="7.33743">
        <ele>468.78002929688</ele>
        <time>2013-05-12T07:13:05Z</time>
      </trkpt>
      <trkpt lat="43.84874" lon="7.33735">
        <ele>471.18334960938</ele>
        <time>2013-05-12T07:13:12Z</time>
      </trkpt>
      <trkpt lat="43.84877" lon="7.33732">
        <ele>472.62536621094</ele>
        <time>2013-05-12T07:13:15Z</time>
      </trkpt>
      <trkpt lat="43.84877" lon="7.33724">
        <ele>474.06726074219</ele>
        <time>2013-05-12T07:13:19Z</time>
      </trkpt>
      <trkpt lat="43.84876" lon="7.33719">
        <ele>474.54797363281</ele>
        <time>2013-05-12T07:13:22Z</time>
      </trkpt>
      <trkpt lat="43.84877" lon="7.33715">
        <ele>474.54797363281</ele>
        <time>2013-05-12T07:13:24Z</time>
      </trkpt>
      <trkpt lat="43.84883" lon="7.33706">
        <ele>476.95129394531</ele>
        <time>2013-05-12T07:13:29Z</time>
      </trkpt>
      <trkpt lat="43.84885" lon="7.33701">
        <ele>477.91247558594</ele>
        <time>2013-05-12T07:13:31Z</time>
      </trkpt>
      <trkpt lat="43.84888" lon="7.33696">
        <ele>479.3544921875</ele>
        <time>2013-05-12T07:13:33Z</time>
      </trkpt>
      <trkpt lat="43.84894" lon="7.33682">
        <ele>480.31591796875</ele>
        <time>2013-05-12T07:13:38Z</time>
      </trkpt>
      <trkpt lat="43.84904" lon="7.3367">
        <ele>483.19982910156</ele>
        <time>2013-05-12T07:13:47Z</time>
      </trkpt>
      <trkpt lat="43.84905" lon="7.33667">
        <ele>484.1611328125</ele>
        <time>2013-05-12T07:13:49Z</time>
      </trkpt>
      <trkpt lat="43.84907" lon="7.33662">
        <ele>485.60302734375</ele>
        <time>2013-05-12T07:13:53Z</time>
      </trkpt>
      <trkpt lat="43.84915" lon="7.33647">
        <ele>489.44836425781</ele>
        <time>2013-05-12T07:14:05Z</time>
      </trkpt>
      <trkpt lat="43.84919" lon="7.33639">
        <ele>490.89038085938</ele>
        <time>2013-05-12T07:14:11Z</time>
      </trkpt>
      <trkpt lat="43.84928" lon="7.33631">
        <ele>493.77429199219</ele>
        <time>2013-05-12T07:14:19Z</time>
      </trkpt>
      <trkpt lat="43.8495" lon="7.33611">
        <ele>497.61962890625</ele>
        <time>2013-05-12T07:14:31Z</time>
      </trkpt>
      <trkpt lat="43.84963" lon="7.336">
        <ele>500.02294921875</ele>
        <time>2013-05-12T07:14:40Z</time>
      </trkpt>
      <trkpt lat="43.8497" lon="7.33593">
        <ele>501.94555664062</ele>
        <time>2013-05-12T07:14:46Z</time>
      </trkpt>
      <trkpt lat="43.84986" lon="7.33584">
        <ele>503.38745117188</ele>
        <time>2013-05-12T07:14:53Z</time>
      </trkpt>
      <trkpt lat="43.85005" lon="7.33577">
        <ele>504.82946777344</ele>
        <time>2013-05-12T07:15:03Z</time>
      </trkpt>
      <trkpt lat="43.85021" lon="7.33578">
        <ele>508.19409179688</ele>
        <time>2013-05-12T07:15:15Z</time>
      </trkpt>
      <trkpt lat="43.85028" lon="7.33573">
        <ele>509.15539550781</ele>
        <time>2013-05-12T07:15:20Z</time>
      </trkpt>
      <trkpt lat="43.8503" lon="7.3357">
        <ele>511.07800292969</ele>
        <time>2013-05-12T07:15:22Z</time>
      </trkpt>
      <trkpt lat="43.85043" lon="7.33557">
        <ele>514.92333984375</ele>
        <time>2013-05-12T07:15:32Z</time>
      </trkpt>
      <trkpt lat="43.85048" lon="7.33543">
        <ele>517.80725097656</ele>
        <time>2013-05-12T07:15:42Z</time>
      </trkpt>
      <trkpt lat="43.85049" lon="7.33533">
        <ele>520.69128417969</ele>
        <time>2013-05-12T07:15:51Z</time>
      </trkpt>
      <trkpt lat="43.85049" lon="7.33529">
        <ele>521.17199707031</ele>
        <time>2013-05-12T07:15:54Z</time>
      </trkpt>
      <trkpt lat="43.85051" lon="7.33521">
        <ele>524.53649902344</ele>
        <time>2013-05-12T07:16:02Z</time>
      </trkpt>
      <trkpt lat="43.85054" lon="7.33516">
        <ele>526.45910644531</ele>
        <time>2013-05-12T07:16:06Z</time>
      </trkpt>
      <trkpt lat="43.85057" lon="7.33507">
        <ele>530.30444335938</ele>
        <time>2013-05-12T07:16:16Z</time>
      </trkpt>
      <trkpt lat="43.85058" lon="7.33506">
        <ele>530.30444335938</ele>
        <time>2013-05-12T07:16:17Z</time>
      </trkpt>
      <trkpt lat="43.85065" lon="7.33495">
        <ele>532.22705078125</ele>
        <time>2013-05-12T07:16:25Z</time>
      </trkpt>
      <trkpt lat="43.85068" lon="7.3349">
        <ele>534.14965820312</ele>
        <time>2013-05-12T07:16:28Z</time>
      </trkpt>
      <trkpt lat="43.85069" lon="7.33489">
        <ele>534.63037109375</ele>
        <time>2013-05-12T07:16:29Z</time>
      </trkpt>
      <trkpt lat="43.85074" lon="7.33485">
        <ele>534.63037109375</ele>
        <time>2013-05-12T07:16:31Z</time>
      </trkpt>
      <trkpt lat="43.85083" lon="7.33474">
        <ele>535.11096191406</ele>
        <time>2013-05-12T07:16:36Z</time>
      </trkpt>
      <trkpt lat="43.85109" lon="7.33403">
        <ele>532.70776367188</ele>
        <time>2013-05-12T07:16:51Z</time>
      </trkpt>
      <trkpt lat="43.85136" lon="7.33291">
        <ele>531.26574707031</ele>
        <time>2013-05-12T07:17:06Z</time>
      </trkpt>
      <trkpt lat="43.85157" lon="7.33265">
        <ele>529.34313964844</ele>
        <time>2013-05-12T07:17:12Z</time>
      </trkpt>
      <trkpt lat="43.85168" lon="7.33207">
        <ele>526.45910644531</ele>
        <time>2013-05-12T07:17:21Z</time>
      </trkpt>
      <trkpt lat="43.85194" lon="7.33166">
        <ele>524.05578613281</ele>
        <time>2013-05-12T07:17:33Z</time>
      </trkpt>
      <trkpt lat="43.85246" lon="7.33079">
        <ele>522.61389160156</ele>
        <time>2013-05-12T07:17:50Z</time>
      </trkpt>
      <trkpt lat="43.85298" lon="7.32989">
        <ele>525.01721191406</ele>
        <time>2013-05-12T07:18:04Z</time>
      </trkpt>
      <trkpt lat="43.85316" lon="7.32962">
        <ele>525.49780273438</ele>
        <time>2013-05-12T07:18:12Z</time>
      </trkpt>
      <trkpt lat="43.85333" lon="7.32928">
        <ele>525.97839355469</ele>
        <time>2013-05-12T07:18:21Z</time>
      </trkpt>
      <trkpt lat="43.85354" lon="7.32873">
        <ele>527.42041015625</ele>
        <time>2013-05-12T07:18:36Z</time>
      </trkpt>
      <trkpt lat="43.85366" lon="7.32823">
        <ele>530.78515625</ele>
        <time>2013-05-12T07:18:48Z</time>
      </trkpt>
      <trkpt lat="43.85375" lon="7.32775">
        <ele>532.70776367188</ele>
        <time>2013-05-12T07:19:01Z</time>
      </trkpt>
      <trkpt lat="43.85372" lon="7.32727">
        <ele>536.07238769531</ele>
        <time>2013-05-12T07:19:15Z</time>
      </trkpt>
      <trkpt lat="43.85368" lon="7.32676">
        <ele>536.55310058594</ele>
        <time>2013-05-12T07:19:26Z</time>
      </trkpt>
      <trkpt lat="43.8536" lon="7.32618">
        <ele>537.99499511719</ele>
        <time>2013-05-12T07:19:40Z</time>
      </trkpt>
      <trkpt lat="43.8536" lon="7.32593">
        <ele>539.43688964844</ele>
        <time>2013-05-12T07:19:47Z</time>
      </trkpt>
      <trkpt lat="43.85361" lon="7.32583">
        <ele>540.87890625</ele>
        <time>2013-05-12T07:19:50Z</time>
      </trkpt>
      <trkpt lat="43.85365" lon="7.32572">
        <ele>541.84020996094</ele>
        <time>2013-05-12T07:19:54Z</time>
      </trkpt>
      <trkpt lat="43.85375" lon="7.32547">
        <ele>545.20483398438</ele>
        <time>2013-05-12T07:20:03Z</time>
      </trkpt>
      <trkpt lat="43.85378" lon="7.32541">
        <ele>546.16625976562</ele>
        <time>2013-05-12T07:20:05Z</time>
      </trkpt>
      <trkpt lat="43.85385" lon="7.32531">
        <ele>547.60815429688</ele>
        <time>2013-05-12T07:20:10Z</time>
      </trkpt>
      <trkpt lat="43.85391" lon="7.3252">
        <ele>549.05004882812</ele>
        <time>2013-05-12T07:20:14Z</time>
      </trkpt>
      <trkpt lat="43.85398" lon="7.3251">
        <ele>550.4921875</ele>
        <time>2013-05-12T07:20:19Z</time>
      </trkpt>
      <trkpt lat="43.85402" lon="7.32506">
        <ele>552.41455078125</ele>
        <time>2013-05-12T07:20:26Z</time>
      </trkpt>
      <trkpt lat="43.85415" lon="7.32496">
        <ele>554.33740234375</ele>
        <time>2013-05-12T07:20:32Z</time>
      </trkpt>
      <trkpt lat="43.8543" lon="7.32482">
        <ele>554.33740234375</ele>
        <time>2013-05-12T07:20:39Z</time>
      </trkpt>
      <trkpt lat="43.85452" lon="7.3245">
        <ele>556.74072265625</ele>
        <time>2013-05-12T07:20:50Z</time>
      </trkpt>
      <trkpt lat="43.85457" lon="7.32439">
        <ele>557.22143554688</ele>
        <time>2013-05-12T07:20:54Z</time>
      </trkpt>
      <trkpt lat="43.85459" lon="7.32434">
        <ele>557.7021484375</ele>
        <time>2013-05-12T07:20:56Z</time>
      </trkpt>
      <trkpt lat="43.85472" lon="7.32398">
        <ele>559.62475585938</ele>
        <time>2013-05-12T07:21:10Z</time>
      </trkpt>
      <trkpt lat="43.85474" lon="7.32375">
        <ele>560.5859375</ele>
        <time>2013-05-12T07:21:17Z</time>
      </trkpt>
      <trkpt lat="43.85473" lon="7.32366">
        <ele>560.5859375</ele>
        <time>2013-05-12T07:21:20Z</time>
      </trkpt>
      <trkpt lat="43.85482" lon="7.32337">
        <ele>561.06665039062</ele>
        <time>2013-05-12T07:21:29Z</time>
      </trkpt>
      <trkpt lat="43.85488" lon="7.32325">
        <ele>562.9892578125</ele>
        <time>2013-05-12T07:21:34Z</time>
      </trkpt>
      <trkpt lat="43.8551" lon="7.32288">
        <ele>562.50854492188</ele>
        <time>2013-05-12T07:21:46Z</time>
      </trkpt>
      <trkpt lat="43.85527" lon="7.32286">
        <ele>562.02807617188</ele>
        <time>2013-05-12T07:21:54Z</time>
      </trkpt>
      <trkpt lat="43.85533" lon="7.32285">
        <ele>562.02807617188</ele>
        <time>2013-05-12T07:21:56Z</time>
      </trkpt>
      <trkpt lat="43.85549" lon="7.32292">
        <ele>562.9892578125</ele>
        <time>2013-05-12T07:22:00Z</time>
      </trkpt>
      <trkpt lat="43.85553" lon="7.3229">
        <ele>564.91186523438</ele>
        <time>2013-05-12T07:22:03Z</time>
      </trkpt>
      <trkpt lat="43.85555" lon="7.32288">
        <ele>565.392578125</ele>
        <time>2013-05-12T07:22:05Z</time>
      </trkpt>
      <trkpt lat="43.85561" lon="7.32283">
        <ele>568.2763671875</ele>
        <time>2013-05-12T07:22:12Z</time>
      </trkpt>
      <trkpt lat="43.85565" lon="7.32286">
        <ele>568.75708007812</ele>
        <time>2013-05-12T07:22:15Z</time>
      </trkpt>
      <trkpt lat="43.85594" lon="7.32257">
        <ele>572.12182617188</ele>
        <time>2013-05-12T07:22:28Z</time>
      </trkpt>
      <trkpt lat="43.856" lon="7.32251">
        <ele>572.12182617188</ele>
        <time>2013-05-12T07:22:31Z</time>
      </trkpt>
      <trkpt lat="43.85613" lon="7.32238">
        <ele>570.6796875</ele>
        <time>2013-05-12T07:22:36Z</time>
      </trkpt>
      <trkpt lat="43.85618" lon="7.32228">
        <ele>570.6796875</ele>
        <time>2013-05-12T07:22:39Z</time>
      </trkpt>
      <trkpt lat="43.85623" lon="7.32226">
        <ele>569.23779296875</ele>
        <time>2013-05-12T07:22:44Z</time>
      </trkpt>
      <trkpt lat="43.85625" lon="7.32236">
        <ele>571.16040039062</ele>
        <time>2013-05-12T07:22:48Z</time>
      </trkpt>
      <trkpt lat="43.85628" lon="7.32261">
        <ele>572.6025390625</ele>
        <time>2013-05-12T07:22:57Z</time>
      </trkpt>
      <trkpt lat="43.85639" lon="7.32268">
        <ele>573.56396484375</ele>
        <time>2013-05-12T07:23:02Z</time>
      </trkpt>
      <trkpt lat="43.85647" lon="7.3227">
        <ele>574.52514648438</ele>
        <time>2013-05-12T07:23:05Z</time>
      </trkpt>
      <trkpt lat="43.85657" lon="7.3227">
        <ele>574.52514648438</ele>
        <time>2013-05-12T07:23:08Z</time>
      </trkpt>
      <trkpt lat="43.8566" lon="7.32267">
        <ele>575.96704101562</ele>
        <time>2013-05-12T07:23:10Z</time>
      </trkpt>
      <trkpt lat="43.8567" lon="7.32246">
        <ele>578.85107421875</ele>
        <time>2013-05-12T07:23:17Z</time>
      </trkpt>
      <trkpt lat="43.85679" lon="7.32235">
        <ele>581.25439453125</ele>
        <time>2013-05-12T07:23:23Z</time>
      </trkpt>
      <trkpt lat="43.85684" lon="7.32223">
        <ele>583.1767578125</ele>
        <time>2013-05-12T07:23:30Z</time>
      </trkpt>
      <trkpt lat="43.85686" lon="7.32214">
        <ele>585.099609375</ele>
        <time>2013-05-12T07:23:35Z</time>
      </trkpt>
      <trkpt lat="43.85694" lon="7.32209">
        <ele>586.06079101562</ele>
        <time>2013-05-12T07:23:39Z</time>
      </trkpt>
      <trkpt lat="43.85718" lon="7.32191">
        <ele>585.099609375</ele>
        <time>2013-05-12T07:23:48Z</time>
      </trkpt>
      <trkpt lat="43.85725" lon="7.32183">
        <ele>585.099609375</ele>
        <time>2013-05-12T07:23:55Z</time>
      </trkpt>
      <trkpt lat="43.85728" lon="7.32181">
        <ele>586.06079101562</ele>
        <time>2013-05-12T07:23:58Z</time>
      </trkpt>
      <trkpt lat="43.85731" lon="7.32189">
        <ele>587.50268554688</ele>
        <time>2013-05-12T07:24:02Z</time>
      </trkpt>
      <trkpt lat="43.85738" lon="7.32192">
        <ele>587.9833984375</ele>
        <time>2013-05-12T07:24:06Z</time>
      </trkpt>
      <trkpt lat="43.85742" lon="7.32194">
        <ele>588.46435546875</ele>
        <time>2013-05-12T07:24:09Z</time>
      </trkpt>
      <trkpt lat="43.85748" lon="7.32195">
        <ele>589.42553710938</ele>
        <time>2013-05-12T07:24:13Z</time>
      </trkpt>
      <trkpt lat="43.85756" lon="7.32194">
        <ele>589.90625</ele>
        <time>2013-05-12T07:24:17Z</time>
      </trkpt>
      <trkpt lat="43.85761" lon="7.32191">
        <ele>590.86743164062</ele>
        <time>2013-05-12T07:24:20Z</time>
      </trkpt>
      <trkpt lat="43.85795" lon="7.32173">
        <ele>593.75146484375</ele>
        <time>2013-05-12T07:24:32Z</time>
      </trkpt>
      <trkpt lat="43.858" lon="7.32172">
        <ele>594.23217773438</ele>
        <time>2013-05-12T07:24:34Z</time>
      </trkpt>
      <trkpt lat="43.85809" lon="7.32176">
        <ele>595.193359375</ele>
        <time>2013-05-12T07:24:38Z</time>
      </trkpt>
      <trkpt lat="43.85841" lon="7.32178">
        <ele>599.03857421875</ele>
        <time>2013-05-12T07:24:54Z</time>
      </trkpt>
      <trkpt lat="43.85846" lon="7.32177">
        <ele>600.48071289062</ele>
        <time>2013-05-12T07:25:00Z</time>
      </trkpt>
      <trkpt lat="43.85864" lon="7.32175">
        <ele>603.84521484375</ele>
        <time>2013-05-12T07:25:13Z</time>
      </trkpt>
      <trkpt lat="43.85871" lon="7.3217">
        <ele>605.76806640625</ele>
        <time>2013-05-12T07:25:19Z</time>
      </trkpt>
      <trkpt lat="43.85884" lon="7.32158">
        <ele>608.65185546875</ele>
        <time>2013-05-12T07:25:31Z</time>
      </trkpt>
      <trkpt lat="43.85893" lon="7.32146">
        <ele>612.4970703125</ele>
        <time>2013-05-12T07:25:41Z</time>
      </trkpt>
      <trkpt lat="43.85911" lon="7.3214">
        <ele>615.86181640625</ele>
        <time>2013-05-12T07:25:53Z</time>
      </trkpt>
      <trkpt lat="43.85919" lon="7.32138">
        <ele>619.22631835938</ele>
        <time>2013-05-12T07:26:04Z</time>
      </trkpt>
      <trkpt lat="43.85944" lon="7.32115">
        <ele>622.1103515625</ele>
        <time>2013-05-12T07:26:19Z</time>
      </trkpt>
      <trkpt lat="43.85964" lon="7.32116">
        <ele>623.55249023438</ele>
        <time>2013-05-12T07:26:23Z</time>
      </trkpt>
      <trkpt lat="43.85971" lon="7.32115">
        <ele>623.55249023438</ele>
        <time>2013-05-12T07:26:25Z</time>
      </trkpt>
      <trkpt lat="43.85993" lon="7.32098">
        <ele>625.95556640625</ele>
        <time>2013-05-12T07:26:34Z</time>
      </trkpt>
      <trkpt lat="43.85997" lon="7.32083">
        <ele>626.9169921875</ele>
        <time>2013-05-12T07:26:38Z</time>
      </trkpt>
      <trkpt lat="43.85999" lon="7.32079">
        <ele>627.39770507812</ele>
        <time>2013-05-12T07:26:40Z</time>
      </trkpt>
      <trkpt lat="43.86002" lon="7.32071">
        <ele>628.83959960938</ele>
        <time>2013-05-12T07:26:46Z</time>
      </trkpt>
      <trkpt lat="43.86006" lon="7.3206">
        <ele>631.24291992188</ele>
        <time>2013-05-12T07:26:53Z</time>
      </trkpt>
      <trkpt lat="43.86006" lon="7.32054">
        <ele>631.72338867188</ele>
        <time>2013-05-12T07:26:56Z</time>
      </trkpt>
      <trkpt lat="43.86017" lon="7.32044">
        <ele>635.56860351562</ele>
        <time>2013-05-12T07:27:07Z</time>
      </trkpt>
      <trkpt lat="43.86023" lon="7.3207">
        <ele>635.08813476562</ele>
        <time>2013-05-12T07:27:15Z</time>
      </trkpt>
      <trkpt lat="43.86028" lon="7.32079">
        <ele>635.08813476562</ele>
        <time>2013-05-12T07:27:19Z</time>
      </trkpt>
      <trkpt lat="43.86029" lon="7.32096">
        <ele>635.08813476562</ele>
        <time>2013-05-12T07:27:24Z</time>
      </trkpt>
      <trkpt lat="43.86033" lon="7.32115">
        <ele>636.5302734375</ele>
        <time>2013-05-12T07:27:30Z</time>
      </trkpt>
      <trkpt lat="43.8603" lon="7.32173">
        <ele>638.45288085938</ele>
        <time>2013-05-12T07:27:46Z</time>
      </trkpt>
      <trkpt lat="43.86029" lon="7.32177">
        <ele>638.45288085938</ele>
        <time>2013-05-12T07:27:47Z</time>
      </trkpt>
      <trkpt lat="43.86041" lon="7.32224">
        <ele>641.33666992188</ele>
        <time>2013-05-12T07:28:01Z</time>
      </trkpt>
      <trkpt lat="43.86055" lon="7.32271">
        <ele>644.701171875</ele>
        <time>2013-05-12T07:28:17Z</time>
      </trkpt>
      <trkpt lat="43.86074" lon="7.32319">
        <ele>646.6240234375</ele>
        <time>2013-05-12T07:28:29Z</time>
      </trkpt>
      <trkpt lat="43.8608" lon="7.32327">
        <ele>647.1044921875</ele>
        <time>2013-05-12T07:28:34Z</time>
      </trkpt>
      <trkpt lat="43.86089" lon="7.32348">
        <ele>650.94970703125</ele>
        <time>2013-05-12T07:28:46Z</time>
      </trkpt>
      <trkpt lat="43.86099" lon="7.32382">
        <ele>654.31469726562</ele>
        <time>2013-05-12T07:28:59Z</time>
      </trkpt>
      <trkpt lat="43.86099" lon="7.32385">
        <ele>654.31469726562</ele>
        <time>2013-05-12T07:29:00Z</time>
      </trkpt>
      <trkpt lat="43.86104" lon="7.32407">
        <ele>656.23706054688</ele>
        <time>2013-05-12T07:29:07Z</time>
      </trkpt>
      <trkpt lat="43.86115" lon="7.32432">
        <ele>659.60180664062</ele>
        <time>2013-05-12T07:29:18Z</time>
      </trkpt>
      <trkpt lat="43.86116" lon="7.32434">
        <ele>659.60180664062</ele>
        <time>2013-05-12T07:29:19Z</time>
      </trkpt>
      <trkpt lat="43.8612" lon="7.32438">
        <ele>660.08227539062</ele>
        <time>2013-05-12T07:29:22Z</time>
      </trkpt>
      <trkpt lat="43.86126" lon="7.32439">
        <ele>661.04370117188</ele>
        <time>2013-05-12T07:29:26Z</time>
      </trkpt>
      <trkpt lat="43.86129" lon="7.32437">
        <ele>661.5244140625</ele>
        <time>2013-05-12T07:29:28Z</time>
      </trkpt>
      <trkpt lat="43.86143" lon="7.32434">
        <ele>662.00512695312</ele>
        <time>2013-05-12T07:29:35Z</time>
      </trkpt>
      <trkpt lat="43.86152" lon="7.32432">
        <ele>663.44702148438</ele>
        <time>2013-05-12T07:29:39Z</time>
      </trkpt>
      <trkpt lat="43.86163" lon="7.3243">
        <ele>663.44702148438</ele>
        <time>2013-05-12T07:29:42Z</time>
      </trkpt>
      <trkpt lat="43.86169" lon="7.32429">
        <ele>663.92749023438</ele>
        <time>2013-05-12T07:29:45Z</time>
      </trkpt>
      <trkpt lat="43.86181" lon="7.32424">
        <ele>664.88891601562</ele>
        <time>2013-05-12T07:29:50Z</time>
      </trkpt>
      <trkpt lat="43.8619" lon="7.32419">
        <ele>666.8115234375</ele>
        <time>2013-05-12T07:29:59Z</time>
      </trkpt>
      <trkpt lat="43.86218" lon="7.32395">
        <ele>669.21508789062</ele>
        <time>2013-05-12T07:30:11Z</time>
      </trkpt>
      <trkpt lat="43.86233" lon="7.32388">
        <ele>671.1376953125</ele>
        <time>2013-05-12T07:30:18Z</time>
      </trkpt>
      <trkpt lat="43.86235" lon="7.32388">
        <ele>671.1376953125</ele>
        <time>2013-05-12T07:30:19Z</time>
      </trkpt>
      <trkpt lat="43.86244" lon="7.32383">
        <ele>671.6181640625</ele>
        <time>2013-05-12T07:30:23Z</time>
      </trkpt>
      <trkpt lat="43.86256" lon="7.32383">
        <ele>669.69580078125</ele>
        <time>2013-05-12T07:30:28Z</time>
      </trkpt>
      <trkpt lat="43.86265" lon="7.32382">
        <ele>670.65698242188</ele>
        <time>2013-05-12T07:30:31Z</time>
      </trkpt>
      <trkpt lat="43.86287" lon="7.32379">
        <ele>672.09887695312</ele>
        <time>2013-05-12T07:30:39Z</time>
      </trkpt>
      <trkpt lat="43.86304" lon="7.32373">
        <ele>673.06030273438</ele>
        <time>2013-05-12T07:30:46Z</time>
      </trkpt>
      <trkpt lat="43.86323" lon="7.32363">
        <ele>676.4248046875</ele>
        <time>2013-05-12T07:30:57Z</time>
      </trkpt>
      <trkpt lat="43.86325" lon="7.32362">
        <ele>676.4248046875</ele>
        <time>2013-05-12T07:30:58Z</time>
      </trkpt>
      <trkpt lat="43.8633" lon="7.32361">
        <ele>676.90551757812</ele>
        <time>2013-05-12T07:30:59Z</time>
      </trkpt>
      <trkpt lat="43.86337" lon="7.32357">
        <ele>677.86669921875</ele>
        <time>2013-05-12T07:31:02Z</time>
      </trkpt>
      <trkpt lat="43.86353" lon="7.32347">
        <ele>681.2314453125</ele>
        <time>2013-05-12T07:31:15Z</time>
      </trkpt>
      <trkpt lat="43.86365" lon="7.32336">
        <ele>684.59619140625</ele>
        <time>2013-05-12T07:31:24Z</time>
      </trkpt>
      <trkpt lat="43.86388" lon="7.32319">
        <ele>686.0380859375</ele>
        <time>2013-05-12T07:31:38Z</time>
      </trkpt>
      <trkpt lat="43.86393" lon="7.32319">
        <ele>687.47998046875</ele>
        <time>2013-05-12T07:31:40Z</time>
      </trkpt>
      <trkpt lat="43.86401" lon="7.32318">
        <ele>687.96069335938</ele>
        <time>2013-05-12T07:31:43Z</time>
      </trkpt>
      <trkpt lat="43.86419" lon="7.32311">
        <ele>688.44140625</ele>
        <time>2013-05-12T07:31:50Z</time>
      </trkpt>
      <trkpt lat="43.8643" lon="7.32299">
        <ele>689.40258789062</ele>
        <time>2013-05-12T07:31:55Z</time>
      </trkpt>
      <trkpt lat="43.86446" lon="7.32294">
        <ele>689.40258789062</ele>
        <time>2013-05-12T07:32:00Z</time>
      </trkpt>
      <trkpt lat="43.86471" lon="7.32285">
        <ele>691.80590820312</ele>
        <time>2013-05-12T07:32:11Z</time>
      </trkpt>
      <trkpt lat="43.86484" lon="7.32286">
        <ele>691.80590820312</ele>
        <time>2013-05-12T07:32:15Z</time>
      </trkpt>
      <trkpt lat="43.86492" lon="7.3229">
        <ele>691.3251953125</ele>
        <time>2013-05-12T07:32:18Z</time>
      </trkpt>
      <trkpt lat="43.86502" lon="7.32286">
        <ele>692.28662109375</ele>
        <time>2013-05-12T07:32:22Z</time>
      </trkpt>
      <trkpt lat="43.86514" lon="7.32318">
        <ele>693.24780273438</ele>
        <time>2013-05-12T07:32:32Z</time>
      </trkpt>
      <trkpt lat="43.8653" lon="7.3236">
        <ele>696.61254882812</ele>
        <time>2013-05-12T07:32:46Z</time>
      </trkpt>
      <trkpt lat="43.86543" lon="7.32373">
        <ele>699.49633789062</ele>
        <time>2013-05-12T07:32:55Z</time>
      </trkpt>
      <trkpt lat="43.86546" lon="7.32373">
        <ele>699.49633789062</ele>
        <time>2013-05-12T07:32:56Z</time>
      </trkpt>
      <trkpt lat="43.86555" lon="7.3237">
        <ele>700.9384765625</ele>
        <time>2013-05-12T07:33:00Z</time>
      </trkpt>
      <trkpt lat="43.86572" lon="7.32367">
        <ele>702.86108398438</ele>
        <time>2013-05-12T07:33:08Z</time>
      </trkpt>
      <trkpt lat="43.8658" lon="7.32357">
        <ele>703.82250976562</ele>
        <time>2013-05-12T07:33:13Z</time>
      </trkpt>
      <trkpt lat="43.86585" lon="7.32351">
        <ele>703.82250976562</ele>
        <time>2013-05-12T07:33:16Z</time>
      </trkpt>
      <trkpt lat="43.86597" lon="7.32358">
        <ele>703.82250976562</ele>
        <time>2013-05-12T07:33:22Z</time>
      </trkpt>
      <trkpt lat="43.86642" lon="7.32394">
        <ele>703.341796875</ele>
        <time>2013-05-12T07:33:39Z</time>
      </trkpt>
      <trkpt lat="43.86684" lon="7.32391">
        <ele>704.30322265625</ele>
        <time>2013-05-12T07:33:53Z</time>
      </trkpt>
      <trkpt lat="43.86704" lon="7.32384">
        <ele>703.341796875</ele>
        <time>2013-05-12T07:33:59Z</time>
      </trkpt>
      <trkpt lat="43.86742" lon="7.32349">
        <ele>704.30322265625</ele>
        <time>2013-05-12T07:34:13Z</time>
      </trkpt>
      <trkpt lat="43.8675" lon="7.32334">
        <ele>703.82250976562</ele>
        <time>2013-05-12T07:34:17Z</time>
      </trkpt>
      <trkpt lat="43.86761" lon="7.32333">
        <ele>703.341796875</ele>
        <time>2013-05-12T07:34:22Z</time>
      </trkpt>
      <trkpt lat="43.86778" lon="7.32326">
        <ele>705.26440429688</ele>
        <time>2013-05-12T07:34:29Z</time>
      </trkpt>
      <trkpt lat="43.86786" lon="7.32325">
        <ele>705.7451171875</ele>
        <time>2013-05-12T07:34:33Z</time>
      </trkpt>
      <trkpt lat="43.86795" lon="7.32322">
        <ele>705.7451171875</ele>
        <time>2013-05-12T07:34:36Z</time>
      </trkpt>
      <trkpt lat="43.86835" lon="7.32305">
        <ele>706.70629882812</ele>
        <time>2013-05-12T07:34:49Z</time>
      </trkpt>
      <trkpt lat="43.86871" lon="7.32283">
        <ele>708.62890625</ele>
        <time>2013-05-12T07:35:02Z</time>
      </trkpt>
      <trkpt lat="43.86903" lon="7.32263">
        <ele>710.55151367188</ele>
        <time>2013-05-12T07:35:15Z</time>
      </trkpt>
      <trkpt lat="43.8692" lon="7.32254">
        <ele>709.59033203125</ele>
        <time>2013-05-12T07:35:21Z</time>
      </trkpt>
      <trkpt lat="43.86948" lon="7.32237">
        <ele>710.07080078125</ele>
        <time>2013-05-12T07:35:31Z</time>
      </trkpt>
      <trkpt lat="43.86978" lon="7.32212">
        <ele>708.62890625</ele>
        <time>2013-05-12T07:35:42Z</time>
      </trkpt>
      <trkpt lat="43.86989" lon="7.32198">
        <ele>709.10961914062</ele>
        <time>2013-05-12T07:35:46Z</time>
      </trkpt>
      <trkpt lat="43.87007" lon="7.32179">
        <ele>711.51293945312</ele>
        <time>2013-05-12T07:35:55Z</time>
      </trkpt>
      <trkpt lat="43.87023" lon="7.32175">
        <ele>712.95483398438</ele>
        <time>2013-05-12T07:36:02Z</time>
      </trkpt>
      <trkpt lat="43.87055" lon="7.32162">
        <ele>712.47412109375</ele>
        <time>2013-05-12T07:36:13Z</time>
      </trkpt>
      <trkpt lat="43.87064" lon="7.32157">
        <ele>712.95483398438</ele>
        <time>2013-05-12T07:36:16Z</time>
      </trkpt>
      <trkpt lat="43.87086" lon="7.32164">
        <ele>714.39672851562</ele>
        <time>2013-05-12T07:36:24Z</time>
      </trkpt>
      <trkpt lat="43.87106" lon="7.32138">
        <ele>713.916015625</ele>
        <time>2013-05-12T07:36:34Z</time>
      </trkpt>
      <trkpt lat="43.87108" lon="7.32131">
        <ele>712.95483398438</ele>
        <time>2013-05-12T07:36:36Z</time>
      </trkpt>
      <trkpt lat="43.87118" lon="7.32082">
        <ele>707.66772460938</ele>
        <time>2013-05-12T07:36:46Z</time>
      </trkpt>
      <trkpt lat="43.87106" lon="7.32055">
        <ele>706.2255859375</ele>
        <time>2013-05-12T07:36:52Z</time>
      </trkpt>
      <trkpt lat="43.87102" lon="7.32045">
        <ele>705.7451171875</ele>
        <time>2013-05-12T07:36:54Z</time>
      </trkpt>
      <trkpt lat="43.87099" lon="7.32029">
        <ele>705.7451171875</ele>
        <time>2013-05-12T07:36:58Z</time>
      </trkpt>
      <trkpt lat="43.87108" lon="7.32012">
        <ele>706.2255859375</ele>
        <time>2013-05-12T07:37:02Z</time>
      </trkpt>
      <trkpt lat="43.87114" lon="7.31996">
        <ele>703.82250976562</ele>
        <time>2013-05-12T07:37:06Z</time>
      </trkpt>
      <trkpt lat="43.87116" lon="7.31986">
        <ele>701.41918945312</ele>
        <time>2013-05-12T07:37:08Z</time>
      </trkpt>
      <trkpt lat="43.87124" lon="7.31982">
        <ele>699.97705078125</ele>
        <time>2013-05-12T07:37:10Z</time>
      </trkpt>
      <trkpt lat="43.87116" lon="7.31971">
        <ele>698.53491210938</ele>
        <time>2013-05-12T07:37:12Z</time>
      </trkpt>
      <trkpt lat="43.87112" lon="7.31964">
        <ele>696.61254882812</ele>
        <time>2013-05-12T07:37:14Z</time>
      </trkpt>
      <trkpt lat="43.87099" lon="7.31949">
        <ele>695.17041015625</ele>
        <time>2013-05-12T07:37:17Z</time>
      </trkpt>
      <trkpt lat="43.87095" lon="7.3194">
        <ele>694.20922851562</ele>
        <time>2013-05-12T07:37:19Z</time>
      </trkpt>
      <trkpt lat="43.87084" lon="7.3193">
        <ele>691.80590820312</ele>
        <time>2013-05-12T07:37:22Z</time>
      </trkpt>
      <trkpt lat="43.87075" lon="7.31934">
        <ele>690.84448242188</ele>
        <time>2013-05-12T07:37:25Z</time>
      </trkpt>
      <trkpt lat="43.87071" lon="7.31931">
        <ele>688.92211914062</ele>
        <time>2013-05-12T07:37:29Z</time>
      </trkpt>
      <trkpt lat="43.87065" lon="7.31914">
        <ele>689.88330078125</ele>
        <time>2013-05-12T07:37:33Z</time>
      </trkpt>
      <trkpt lat="43.87065" lon="7.31888">
        <ele>691.80590820312</ele>
        <time>2013-05-12T07:37:39Z</time>
      </trkpt>
      <trkpt lat="43.87066" lon="7.31881">
        <ele>691.80590820312</ele>
        <time>2013-05-12T07:37:41Z</time>
      </trkpt>
      <trkpt lat="43.87069" lon="7.31868">
        <ele>693.728515625</ele>
        <time>2013-05-12T07:37:45Z</time>
      </trkpt>
      <trkpt lat="43.87069" lon="7.31834">
        <ele>695.65112304688</ele>
        <time>2013-05-12T07:37:55Z</time>
      </trkpt>
      <trkpt lat="43.8706" lon="7.31767">
        <ele>697.09301757812</ele>
        <time>2013-05-12T07:38:12Z</time>
      </trkpt>
      <trkpt lat="43.87071" lon="7.31722">
        <ele>698.05444335938</ele>
        <time>2013-05-12T07:38:24Z</time>
      </trkpt>
      <trkpt lat="43.87074" lon="7.31665">
        <ele>698.53491210938</ele>
        <time>2013-05-12T07:38:38Z</time>
      </trkpt>
      <trkpt lat="43.8706" lon="7.31619">
        <ele>697.09301757812</ele>
        <time>2013-05-12T07:38:50Z</time>
      </trkpt>
      <trkpt lat="43.87058" lon="7.31601">
        <ele>696.1318359375</ele>
        <time>2013-05-12T07:38:54Z</time>
      </trkpt>
      <trkpt lat="43.87047" lon="7.31528">
        <ele>695.17041015625</ele>
        <time>2013-05-12T07:39:10Z</time>
      </trkpt>
      <trkpt lat="43.87041" lon="7.31491">
        <ele>696.1318359375</ele>
        <time>2013-05-12T07:39:20Z</time>
      </trkpt>
      <trkpt lat="43.87037" lon="7.31455">
        <ele>697.09301757812</ele>
        <time>2013-05-12T07:39:28Z</time>
      </trkpt>
      <trkpt lat="43.87044" lon="7.31422">
        <ele>695.65112304688</ele>
        <time>2013-05-12T07:39:36Z</time>
      </trkpt>
      <trkpt lat="43.87038" lon="7.31404">
        <ele>697.09301757812</ele>
        <time>2013-05-12T07:39:41Z</time>
      </trkpt>
      <trkpt lat="43.87047" lon="7.31346">
        <ele>698.53491210938</ele>
        <time>2013-05-12T07:39:55Z</time>
      </trkpt>
      <trkpt lat="43.87051" lon="7.31326">
        <ele>699.49633789062</ele>
        <time>2013-05-12T07:40:00Z</time>
      </trkpt>
      <trkpt lat="43.87049" lon="7.31308">
        <ele>699.49633789062</ele>
        <time>2013-05-12T07:40:05Z</time>
      </trkpt>
      <trkpt lat="43.87047" lon="7.31242">
        <ele>699.97705078125</ele>
        <time>2013-05-12T07:40:19Z</time>
      </trkpt>
      <trkpt lat="43.87047" lon="7.31237">
        <ele>699.97705078125</ele>
        <time>2013-05-12T07:40:20Z</time>
      </trkpt>
      <trkpt lat="43.8705" lon="7.31225">
        <ele>699.97705078125</ele>
        <time>2013-05-12T07:40:23Z</time>
      </trkpt>
      <trkpt lat="43.87053" lon="7.31204">
        <ele>700.4580078125</ele>
        <time>2013-05-12T07:40:28Z</time>
      </trkpt>
      <trkpt lat="43.87054" lon="7.3118">
        <ele>699.97705078125</ele>
        <time>2013-05-12T07:40:34Z</time>
      </trkpt>
      <trkpt lat="43.87052" lon="7.31167">
        <ele>697.57373046875</ele>
        <time>2013-05-12T07:40:38Z</time>
      </trkpt>
      <trkpt lat="43.8705" lon="7.31156">
        <ele>696.61254882812</ele>
        <time>2013-05-12T07:40:41Z</time>
      </trkpt>
      <trkpt lat="43.8705" lon="7.31151">
        <ele>694.20922851562</ele>
        <time>2013-05-12T07:40:42Z</time>
      </trkpt>
      <trkpt lat="43.87049" lon="7.3113">
        <ele>690.84448242188</ele>
        <time>2013-05-12T07:40:46Z</time>
      </trkpt>
      <trkpt lat="43.87049" lon="7.31126">
        <ele>689.40258789062</ele>
        <time>2013-05-12T07:40:47Z</time>
      </trkpt>
      <trkpt lat="43.87049" lon="7.31109">
        <ele>686.99926757812</ele>
        <time>2013-05-12T07:40:50Z</time>
      </trkpt>
      <trkpt lat="43.87047" lon="7.311">
        <ele>686.0380859375</ele>
        <time>2013-05-12T07:40:52Z</time>
      </trkpt>
      <trkpt lat="43.87044" lon="7.3109">
        <ele>682.67333984375</ele>
        <time>2013-05-12T07:40:54Z</time>
      </trkpt>
      <trkpt lat="43.87043" lon="7.31084">
        <ele>682.67333984375</ele>
        <time>2013-05-12T07:40:55Z</time>
      </trkpt>
      <trkpt lat="43.87039" lon="7.31077">
        <ele>680.27001953125</ele>
        <time>2013-05-12T07:40:57Z</time>
      </trkpt>
      <trkpt lat="43.87028" lon="7.31074">
        <ele>677.86669921875</ele>
        <time>2013-05-12T07:41:01Z</time>
      </trkpt>
      <trkpt lat="43.8702" lon="7.31077">
        <ele>675.46337890625</ele>
        <time>2013-05-12T07:41:03Z</time>
      </trkpt>
      <trkpt lat="43.87012" lon="7.31085">
        <ele>673.541015625</ele>
        <time>2013-05-12T07:41:06Z</time>
      </trkpt>
      <trkpt lat="43.87006" lon="7.31091">
        <ele>672.09887695312</ele>
        <time>2013-05-12T07:41:08Z</time>
      </trkpt>
      <trkpt lat="43.86998" lon="7.31101">
        <ele>668.734375</ele>
        <time>2013-05-12T07:41:11Z</time>
      </trkpt>
      <trkpt lat="43.86995" lon="7.31104">
        <ele>667.77270507812</ele>
        <time>2013-05-12T07:41:12Z</time>
      </trkpt>
      <trkpt lat="43.86988" lon="7.31113">
        <ele>666.33081054688</ele>
        <time>2013-05-12T07:41:15Z</time>
      </trkpt>
      <trkpt lat="43.86979" lon="7.31126">
        <ele>663.44702148438</ele>
        <time>2013-05-12T07:41:18Z</time>
      </trkpt>
      <trkpt lat="43.86967" lon="7.31139">
        <ele>660.56298828125</ele>
        <time>2013-05-12T07:41:22Z</time>
      </trkpt>
      <trkpt lat="43.86966" lon="7.31142">
        <ele>660.08227539062</ele>
        <time>2013-05-12T07:41:23Z</time>
      </trkpt>
      <trkpt lat="43.86963" lon="7.31144">
        <ele>659.12109375</ele>
        <time>2013-05-12T07:41:25Z</time>
      </trkpt>
      <trkpt lat="43.86971" lon="7.31133">
        <ele>655.75659179688</ele>
        <time>2013-05-12T07:41:30Z</time>
      </trkpt>
      <trkpt lat="43.86969" lon="7.31106">
        <ele>654.79516601562</ele>
        <time>2013-05-12T07:41:32Z</time>
      </trkpt>
      <trkpt lat="43.8697" lon="7.31099">
        <ele>653.35327148438</ele>
        <time>2013-05-12T07:41:34Z</time>
      </trkpt>
      <trkpt lat="43.8697" lon="7.31089">
        <ele>652.39184570312</ele>
        <time>2013-05-12T07:41:36Z</time>
      </trkpt>
      <trkpt lat="43.8697" lon="7.31076">
        <ele>650.46923828125</ele>
        <time>2013-05-12T07:41:38Z</time>
      </trkpt>
      <trkpt lat="43.8697" lon="7.31058">
        <ele>647.58520507812</ele>
        <time>2013-05-12T07:41:41Z</time>
      </trkpt>
      <trkpt lat="43.8697" lon="7.31047">
        <ele>646.6240234375</ele>
        <time>2013-05-12T07:41:43Z</time>
      </trkpt>
      <trkpt lat="43.8697" lon="7.31024">
        <ele>642.77880859375</ele>
        <time>2013-05-12T07:41:47Z</time>
      </trkpt>
      <trkpt lat="43.8697" lon="7.31017">
        <ele>642.77880859375</ele>
        <time>2013-05-12T07:41:48Z</time>
      </trkpt>
      <trkpt lat="43.8697" lon="7.31007">
        <ele>640.85595703125</ele>
        <time>2013-05-12T07:41:50Z</time>
      </trkpt>
      <trkpt lat="43.86971" lon="7.30998">
        <ele>639.4140625</ele>
        <time>2013-05-12T07:41:52Z</time>
      </trkpt>
      <trkpt lat="43.86972" lon="7.30985">
        <ele>636.04956054688</ele>
        <time>2013-05-12T07:41:54Z</time>
      </trkpt>
      <trkpt lat="43.86972" lon="7.30979">
        <ele>636.04956054688</ele>
        <time>2013-05-12T07:41:55Z</time>
      </trkpt>
      <trkpt lat="43.86976" lon="7.3097">
        <ele>634.12670898438</ele>
        <time>2013-05-12T07:41:57Z</time>
      </trkpt>
      <trkpt lat="43.8698" lon="7.30961">
        <ele>632.2041015625</ele>
        <time>2013-05-12T07:41:59Z</time>
      </trkpt>
      <trkpt lat="43.86987" lon="7.3095">
        <ele>628.35888671875</ele>
        <time>2013-05-12T07:42:02Z</time>
      </trkpt>
      <trkpt lat="43.86995" lon="7.30939">
        <ele>625.95556640625</ele>
        <time>2013-05-12T07:42:06Z</time>
      </trkpt>
      <trkpt lat="43.86999" lon="7.30932">
        <ele>622.59106445312</ele>
        <time>2013-05-12T07:42:08Z</time>
      </trkpt>
      <trkpt lat="43.87002" lon="7.30928">
        <ele>622.59106445312</ele>
        <time>2013-05-12T07:42:09Z</time>
      </trkpt>
      <trkpt lat="43.87008" lon="7.30922">
        <ele>620.66845703125</ele>
        <time>2013-05-12T07:42:11Z</time>
      </trkpt>
      <trkpt lat="43.87014" lon="7.30918">
        <ele>619.22631835938</ele>
        <time>2013-05-12T07:42:13Z</time>
      </trkpt>
      <trkpt lat="43.87015" lon="7.30917">
        <ele>616.82299804688</ele>
        <time>2013-05-12T07:42:16Z</time>
      </trkpt>
      <trkpt lat="43.87028" lon="7.30897">
        <ele>611.05517578125</ele>
        <time>2013-05-12T07:42:23Z</time>
      </trkpt>
      <trkpt lat="43.87035" lon="7.30895">
        <ele>609.13256835938</ele>
        <time>2013-05-12T07:42:25Z</time>
      </trkpt>
      <trkpt lat="43.87039" lon="7.30893">
        <ele>607.69067382812</ele>
        <time>2013-05-12T07:42:27Z</time>
      </trkpt>
      <trkpt lat="43.87041" lon="7.30892">
        <ele>606.24853515625</ele>
        <time>2013-05-12T07:42:29Z</time>
      </trkpt>
      <trkpt lat="43.87042" lon="7.30891">
        <ele>603.84521484375</ele>
        <time>2013-05-12T07:42:30Z</time>
      </trkpt>
      <trkpt lat="43.87039" lon="7.30872">
        <ele>601.92260742188</ele>
        <time>2013-05-12T07:42:32Z</time>
      </trkpt>
      <trkpt lat="43.87047" lon="7.30865">
        <ele>599.51928710938</ele>
        <time>2013-05-12T07:42:34Z</time>
      </trkpt>
      <trkpt lat="43.87053" lon="7.30865">
        <ele>597.11596679688</ele>
        <time>2013-05-12T07:42:36Z</time>
      </trkpt>
      <trkpt lat="43.87055" lon="7.30863">
        <ele>595.67407226562</ele>
        <time>2013-05-12T07:42:38Z</time>
      </trkpt>
      <trkpt lat="43.87053" lon="7.30864">
        <ele>593.27075195312</ele>
        <time>2013-05-12T07:42:40Z</time>
      </trkpt>
      <trkpt lat="43.87051" lon="7.30865">
        <ele>591.82885742188</ele>
        <time>2013-05-12T07:42:41Z</time>
      </trkpt>
      <trkpt lat="43.87061" lon="7.3085">
        <ele>590.38696289062</ele>
        <time>2013-05-12T07:42:44Z</time>
      </trkpt>
      <trkpt lat="43.87061" lon="7.30848">
        <ele>589.42553710938</ele>
        <time>2013-05-12T07:42:45Z</time>
      </trkpt>
      <trkpt lat="43.87058" lon="7.30842">
        <ele>587.02197265625</ele>
        <time>2013-05-12T07:42:47Z</time>
      </trkpt>
      <trkpt lat="43.87053" lon="7.30839">
        <ele>585.580078125</ele>
        <time>2013-05-12T07:42:49Z</time>
      </trkpt>
      <trkpt lat="43.87049" lon="7.30835">
        <ele>584.13818359375</ele>
        <time>2013-05-12T07:42:51Z</time>
      </trkpt>
      <trkpt lat="43.87049" lon="7.30829">
        <ele>583.1767578125</ele>
        <time>2013-05-12T07:42:53Z</time>
      </trkpt>
      <trkpt lat="43.87054" lon="7.30822">
        <ele>581.25439453125</ele>
        <time>2013-05-12T07:42:55Z</time>
      </trkpt>
      <trkpt lat="43.87056" lon="7.3082">
        <ele>579.81225585938</ele>
        <time>2013-05-12T07:42:56Z</time>
      </trkpt>
      <trkpt lat="43.8706" lon="7.30814">
        <ele>577.8896484375</ele>
        <time>2013-05-12T07:42:59Z</time>
      </trkpt>
      <trkpt lat="43.87062" lon="7.30809">
        <ele>576.44775390625</ele>
        <time>2013-05-12T07:43:01Z</time>
      </trkpt>
      <trkpt lat="43.87065" lon="7.30803">
        <ele>574.52514648438</ele>
        <time>2013-05-12T07:43:03Z</time>
      </trkpt>
      <trkpt lat="43.87065" lon="7.30799">
        <ele>572.6025390625</ele>
        <time>2013-05-12T07:43:05Z</time>
      </trkpt>
      <trkpt lat="43.8706" lon="7.30792">
        <ele>568.75708007812</ele>
        <time>2013-05-12T07:43:08Z</time>
      </trkpt>
      <trkpt lat="43.87054" lon="7.30787">
        <ele>567.31518554688</ele>
        <time>2013-05-12T07:43:10Z</time>
      </trkpt>
      <trkpt lat="43.87055" lon="7.30782">
        <ele>565.87329101562</ele>
        <time>2013-05-12T07:43:12Z</time>
      </trkpt>
      <trkpt lat="43.87056" lon="7.30771">
        <ele>563.46997070312</ele>
        <time>2013-05-12T07:43:16Z</time>
      </trkpt>
      <trkpt lat="43.8706" lon="7.30763">
        <ele>561.06665039062</ele>
        <time>2013-05-12T07:43:18Z</time>
      </trkpt>
      <trkpt lat="43.87066" lon="7.3076">
        <ele>559.14404296875</ele>
        <time>2013-05-12T07:43:20Z</time>
      </trkpt>
      <trkpt lat="43.87071" lon="7.30747">
        <ele>553.3759765625</ele>
        <time>2013-05-12T07:43:26Z</time>
      </trkpt>
      <trkpt lat="43.8707" lon="7.30744">
        <ele>553.3759765625</ele>
        <time>2013-05-12T07:43:27Z</time>
      </trkpt>
      <trkpt lat="43.87071" lon="7.30742">
        <ele>551.93408203125</ele>
        <time>2013-05-12T07:43:28Z</time>
      </trkpt>
      <trkpt lat="43.87075" lon="7.3074">
        <ele>550.01147460938</ele>
        <time>2013-05-12T07:43:30Z</time>
      </trkpt>
      <trkpt lat="43.87074" lon="7.30729">
        <ele>546.64685058594</ele>
        <time>2013-05-12T07:43:34Z</time>
      </trkpt>
      <trkpt lat="43.87071" lon="7.30727">
        <ele>546.64685058594</ele>
        <time>2013-05-12T07:43:35Z</time>
      </trkpt>
      <trkpt lat="43.87066" lon="7.30724">
        <ele>545.20483398438</ele>
        <time>2013-05-12T07:43:37Z</time>
      </trkpt>
      <trkpt lat="43.87065" lon="7.30721">
        <ele>543.28210449219</ele>
        <time>2013-05-12T07:43:38Z</time>
      </trkpt>
      <trkpt lat="43.87061" lon="7.30713">
        <ele>541.35949707031</ele>
        <time>2013-05-12T07:43:41Z</time>
      </trkpt>
      <trkpt lat="43.87061" lon="7.30708">
        <ele>539.43688964844</ele>
        <time>2013-05-12T07:43:43Z</time>
      </trkpt>
      <trkpt lat="43.87067" lon="7.30704">
        <ele>537.51428222656</ele>
        <time>2013-05-12T07:43:45Z</time>
      </trkpt>
      <trkpt lat="43.87076" lon="7.307">
        <ele>535.59155273438</ele>
        <time>2013-05-12T07:43:48Z</time>
      </trkpt>
      <trkpt lat="43.87084" lon="7.307">
        <ele>534.63037109375</ele>
        <time>2013-05-12T07:43:50Z</time>
      </trkpt>
      <trkpt lat="43.87087" lon="7.30697">
        <ele>533.18835449219</ele>
        <time>2013-05-12T07:43:52Z</time>
      </trkpt>
      <trkpt lat="43.87079" lon="7.30694">
        <ele>531.74633789062</ele>
        <time>2013-05-12T07:43:54Z</time>
      </trkpt>
      <trkpt lat="43.87076" lon="7.3069">
        <ele>529.34313964844</ele>
        <time>2013-05-12T07:43:55Z</time>
      </trkpt>
      <trkpt lat="43.87072" lon="7.30684">
        <ele>527.90100097656</ele>
        <time>2013-05-12T07:43:57Z</time>
      </trkpt>
      <trkpt lat="43.87066" lon="7.30679">
        <ele>526.93981933594</ele>
        <time>2013-05-12T07:43:59Z</time>
      </trkpt>
      <trkpt lat="43.87061" lon="7.30673">
        <ele>525.49780273438</ele>
        <time>2013-05-12T07:44:01Z</time>
      </trkpt>
      <trkpt lat="43.87057" lon="7.30666">
        <ele>521.65258789062</ele>
        <time>2013-05-12T07:44:03Z</time>
      </trkpt>
      <trkpt lat="43.87052" lon="7.30663">
        <ele>521.65258789062</ele>
        <time>2013-05-12T07:44:04Z</time>
      </trkpt>
      <trkpt lat="43.87046" lon="7.30661">
        <ele>520.21057128906</ele>
        <time>2013-05-12T07:44:06Z</time>
      </trkpt>
      <trkpt lat="43.8704" lon="7.3066">
        <ele>518.28784179688</ele>
        <time>2013-05-12T07:44:08Z</time>
      </trkpt>
      <trkpt lat="43.87009" lon="7.30607">
        <ele>514.44262695312</ele>
        <time>2013-05-12T07:44:10Z</time>
      </trkpt>
      <trkpt lat="43.87009" lon="7.30607">
        <ele>514.44262695312</ele>
        <time>2013-05-12T07:44:11Z</time>
      </trkpt>
      <trkpt lat="43.8701" lon="7.30606">
        <ele>512.03942871094</ele>
        <time>2013-05-12T07:44:13Z</time>
      </trkpt>
      <trkpt lat="43.8703" lon="7.30638">
        <ele>510.59729003906</ele>
        <time>2013-05-12T07:44:15Z</time>
      </trkpt>
      <trkpt lat="43.8703" lon="7.30638">
        <ele>509.63610839844</ele>
        <time>2013-05-12T07:44:16Z</time>
      </trkpt>
      <trkpt lat="43.87026" lon="7.30638">
        <ele>508.67468261719</ele>
        <time>2013-05-12T07:44:18Z</time>
      </trkpt>
      <trkpt lat="43.87025" lon="7.30636">
        <ele>507.23278808594</ele>
        <time>2013-05-12T07:44:20Z</time>
      </trkpt>
      <trkpt lat="43.87023" lon="7.30635">
        <ele>505.31018066406</ele>
        <time>2013-05-12T07:44:21Z</time>
      </trkpt>
      <trkpt lat="43.87015" lon="7.30636">
        <ele>501.94555664062</ele>
        <time>2013-05-12T07:44:25Z</time>
      </trkpt>
      <trkpt lat="43.8701" lon="7.3064">
        <ele>500.98413085938</ele>
        <time>2013-05-12T07:44:27Z</time>
      </trkpt>
      <trkpt lat="43.87017" lon="7.3064">
        <ele>499.54223632812</ele>
        <time>2013-05-12T07:44:29Z</time>
      </trkpt>
      <trkpt lat="43.87017" lon="7.3064">
        <ele>497.13891601562</ele>
        <time>2013-05-12T07:44:32Z</time>
      </trkpt>
      <trkpt lat="43.87017" lon="7.3064">
        <ele>495.69689941406</ele>
        <time>2013-05-12T07:44:34Z</time>
      </trkpt>
      <trkpt lat="43.86976" lon="7.30679">
        <ele>491.37097167969</ele>
        <time>2013-05-12T07:44:40Z</time>
      </trkpt>
      <trkpt lat="43.86971" lon="7.30687">
        <ele>490.89038085938</ele>
        <time>2013-05-12T07:44:42Z</time>
      </trkpt>
      <trkpt lat="43.86962" lon="7.30696">
        <ele>490.89038085938</ele>
        <time>2013-05-12T07:44:45Z</time>
      </trkpt>
      <trkpt lat="43.86961" lon="7.30697">
        <ele>491.85168457031</ele>
        <time>2013-05-12T07:44:50Z</time>
      </trkpt>
      <trkpt lat="43.86949" lon="7.30723">
        <ele>492.81298828125</ele>
        <time>2013-05-12T07:44:59Z</time>
      </trkpt>
      <trkpt lat="43.86937" lon="7.30726">
        <ele>493.29357910156</ele>
        <time>2013-05-12T07:45:03Z</time>
      </trkpt>
      <trkpt lat="43.86925" lon="7.30726">
        <ele>495.21618652344</ele>
        <time>2013-05-12T07:45:08Z</time>
      </trkpt>
      <trkpt lat="43.86915" lon="7.30728">
        <ele>494.73559570312</ele>
        <time>2013-05-12T07:45:13Z</time>
      </trkpt>
      <trkpt lat="43.86902" lon="7.30712">
        <ele>492.81298828125</ele>
        <time>2013-05-12T07:45:19Z</time>
      </trkpt>
      <trkpt lat="43.86885" lon="7.30713">
        <ele>488.48718261719</ele>
        <time>2013-05-12T07:45:24Z</time>
      </trkpt>
      <trkpt lat="43.86881" lon="7.30712">
        <ele>488.48718261719</ele>
        <time>2013-05-12T07:45:25Z</time>
      </trkpt>
      <trkpt lat="43.86845" lon="7.30715">
        <ele>486.08374023438</ele>
        <time>2013-05-12T07:45:36Z</time>
      </trkpt>
      <trkpt lat="43.8682" lon="7.30725">
        <ele>487.04504394531</ele>
        <time>2013-05-12T07:45:47Z</time>
      </trkpt>
      <trkpt lat="43.86808" lon="7.3073">
        <ele>489.44836425781</ele>
        <time>2013-05-12T07:45:53Z</time>
      </trkpt>
      <trkpt lat="43.86808" lon="7.3073">
        <ele>489.92907714844</ele>
        <time>2013-05-12T07:45:55Z</time>
      </trkpt>
      <trkpt lat="43.86786" lon="7.3075">
        <ele>488.00646972656</ele>
        <time>2013-05-12T07:46:05Z</time>
      </trkpt>
      <trkpt lat="43.86769" lon="7.30763">
        <ele>488.48718261719</ele>
        <time>2013-05-12T07:46:13Z</time>
      </trkpt>
      <trkpt lat="43.8676" lon="7.30761">
        <ele>489.44836425781</ele>
        <time>2013-05-12T07:46:17Z</time>
      </trkpt>
      <trkpt lat="43.86737" lon="7.30771">
        <ele>492.33239746094</ele>
        <time>2013-05-12T07:46:31Z</time>
      </trkpt>
      <trkpt lat="43.86723" lon="7.3078">
        <ele>494.25500488281</ele>
        <time>2013-05-12T07:46:43Z</time>
      </trkpt>
      <trkpt lat="43.86695" lon="7.30796">
        <ele>488.9677734375</ele>
        <time>2013-05-12T07:46:52Z</time>
      </trkpt>
      <trkpt lat="43.8669" lon="7.30797">
        <ele>487.52563476562</ele>
        <time>2013-05-12T07:46:54Z</time>
      </trkpt>
      <trkpt lat="43.86684" lon="7.30796">
        <ele>486.564453125</ele>
        <time>2013-05-12T07:46:56Z</time>
      </trkpt>
      <trkpt lat="43.86682" lon="7.30795">
        <ele>485.12243652344</ele>
        <time>2013-05-12T07:46:57Z</time>
      </trkpt>
      <trkpt lat="43.86673" lon="7.30799">
        <ele>482.23852539062</ele>
        <time>2013-05-12T07:47:00Z</time>
      </trkpt>
      <trkpt lat="43.8667" lon="7.30797">
        <ele>482.23852539062</ele>
        <time>2013-05-12T07:47:01Z</time>
      </trkpt>
      <trkpt lat="43.86667" lon="7.30796">
        <ele>481.7578125</ele>
        <time>2013-05-12T07:47:02Z</time>
      </trkpt>
      <trkpt lat="43.86659" lon="7.30799">
        <ele>479.83508300781</ele>
        <time>2013-05-12T07:47:05Z</time>
      </trkpt>
      <trkpt lat="43.86658" lon="7.30799">
        <ele>477.91247558594</ele>
        <time>2013-05-12T07:47:06Z</time>
      </trkpt>
      <trkpt lat="43.86652" lon="7.30799">
        <ele>476.47058105469</ele>
        <time>2013-05-12T07:47:08Z</time>
      </trkpt>
      <trkpt lat="43.86644" lon="7.30792">
        <ele>475.50927734375</ele>
        <time>2013-05-12T07:47:11Z</time>
      </trkpt>
      <trkpt lat="43.8663" lon="7.3079">
        <ele>475.02868652344</ele>
        <time>2013-05-12T07:47:16Z</time>
      </trkpt>
      <trkpt lat="43.86611" lon="7.30783">
        <ele>471.66394042969</ele>
        <time>2013-05-12T07:47:22Z</time>
      </trkpt>
      <trkpt lat="43.86606" lon="7.30782">
        <ele>471.66394042969</ele>
        <time>2013-05-12T07:47:23Z</time>
      </trkpt>
      <trkpt lat="43.86601" lon="7.30775">
        <ele>470.22192382812</ele>
        <time>2013-05-12T07:47:25Z</time>
      </trkpt>
      <trkpt lat="43.86595" lon="7.30768">
        <ele>468.78002929688</ele>
        <time>2013-05-12T07:47:27Z</time>
      </trkpt>
      <trkpt lat="43.86592" lon="7.3076">
        <ele>467.33813476562</ele>
        <time>2013-05-12T07:47:29Z</time>
      </trkpt>
      <trkpt lat="43.86592" lon="7.30758">
        <ele>465.89611816406</ele>
        <time>2013-05-12T07:47:30Z</time>
      </trkpt>
      <trkpt lat="43.86598" lon="7.30759">
        <ele>464.4541015625</ele>
        <time>2013-05-12T07:47:33Z</time>
      </trkpt>
      <trkpt lat="43.86598" lon="7.30757">
        <ele>463.49279785156</ele>
        <time>2013-05-12T07:47:35Z</time>
      </trkpt>
      <trkpt lat="43.86593" lon="7.30751">
        <ele>462.05078125</ele>
        <time>2013-05-12T07:47:37Z</time>
      </trkpt>
      <trkpt lat="43.86583" lon="7.30736">
        <ele>460.12817382812</ele>
        <time>2013-05-12T07:47:42Z</time>
      </trkpt>
      <trkpt lat="43.86583" lon="7.30728">
        <ele>458.68615722656</ele>
        <time>2013-05-12T07:47:44Z</time>
      </trkpt>
      <trkpt lat="43.86573" lon="7.30703">
        <ele>457.24426269531</ele>
        <time>2013-05-12T07:47:50Z</time>
      </trkpt>
      <trkpt lat="43.86576" lon="7.30683">
        <ele>456.28295898438</ele>
        <time>2013-05-12T07:47:55Z</time>
      </trkpt>
      <trkpt lat="43.86577" lon="7.30678">
        <ele>457.24426269531</ele>
        <time>2013-05-12T07:47:57Z</time>
      </trkpt>
      <trkpt lat="43.86576" lon="7.30668">
        <ele>457.72497558594</ele>
        <time>2013-05-12T07:47:59Z</time>
      </trkpt>
      <trkpt lat="43.86579" lon="7.30656">
        <ele>459.64758300781</ele>
        <time>2013-05-12T07:48:04Z</time>
      </trkpt>
      <trkpt lat="43.86573" lon="7.30629">
        <ele>458.68615722656</ele>
        <time>2013-05-12T07:48:12Z</time>
      </trkpt>
      <trkpt lat="43.86566" lon="7.30597">
        <ele>459.16687011719</ele>
        <time>2013-05-12T07:48:21Z</time>
      </trkpt>
      <trkpt lat="43.86538" lon="7.3059">
        <ele>454.8408203125</ele>
        <time>2013-05-12T07:48:31Z</time>
      </trkpt>
      <trkpt lat="43.86532" lon="7.30591">
        <ele>452.91821289062</ele>
        <time>2013-05-12T07:48:33Z</time>
      </trkpt>
      <trkpt lat="43.86525" lon="7.30593">
        <ele>450.99560546875</ele>
        <time>2013-05-12T07:48:36Z</time>
      </trkpt>
      <trkpt lat="43.86521" lon="7.30596">
        <ele>449.5537109375</ele>
        <time>2013-05-12T07:48:38Z</time>
      </trkpt>
      <trkpt lat="43.86518" lon="7.30598">
        <ele>450.51501464844</ele>
        <time>2013-05-12T07:48:39Z</time>
      </trkpt>
      <trkpt lat="43.86502" lon="7.30625">
        <ele>450.51501464844</ele>
        <time>2013-05-12T07:48:48Z</time>
      </trkpt>
      <trkpt lat="43.86485" lon="7.30677">
        <ele>451.95703125</ele>
        <time>2013-05-12T07:49:05Z</time>
      </trkpt>
      <trkpt lat="43.86478" lon="7.30711">
        <ele>450.03442382812</ele>
        <time>2013-05-12T07:49:14Z</time>
      </trkpt>
      <trkpt lat="43.86459" lon="7.30751">
        <ele>446.66967773438</ele>
        <time>2013-05-12T07:49:22Z</time>
      </trkpt>
      <trkpt lat="43.86455" lon="7.30802">
        <ele>446.66967773438</ele>
        <time>2013-05-12T07:49:34Z</time>
      </trkpt>
      <trkpt lat="43.86445" lon="7.30814">
        <ele>447.15026855469</ele>
        <time>2013-05-12T07:49:39Z</time>
      </trkpt>
      <trkpt lat="43.86434" lon="7.30818">
        <ele>449.07299804688</ele>
        <time>2013-05-12T07:49:53Z</time>
      </trkpt>
      <trkpt lat="43.86434" lon="7.30818">
        <ele>449.07299804688</ele>
        <time>2013-05-12T07:50:06Z</time>
      </trkpt>
      <trkpt lat="43.86423" lon="7.30818">
        <ele>449.07299804688</ele>
        <time>2013-05-12T07:50:10Z</time>
      </trkpt>
      <trkpt lat="43.86405" lon="7.30821">
        <ele>452.43762207031</ele>
        <time>2013-05-12T07:50:21Z</time>
      </trkpt>
      <trkpt lat="43.86394" lon="7.30825">
        <ele>452.91821289062</ele>
        <time>2013-05-12T07:50:24Z</time>
      </trkpt>
      <trkpt lat="43.86376" lon="7.30837">
        <ele>454.8408203125</ele>
        <time>2013-05-12T07:50:33Z</time>
      </trkpt>
      <trkpt lat="43.86358" lon="7.30852">
        <ele>455.80224609375</ele>
        <time>2013-05-12T07:50:40Z</time>
      </trkpt>
      <trkpt lat="43.86348" lon="7.30883">
        <ele>456.28295898438</ele>
        <time>2013-05-12T07:50:46Z</time>
      </trkpt>
      <trkpt lat="43.86354" lon="7.30941">
        <ele>457.24426269531</ele>
        <time>2013-05-12T07:51:01Z</time>
      </trkpt>
      <trkpt lat="43.86355" lon="7.30965">
        <ele>459.16687011719</ele>
        <time>2013-05-12T07:51:07Z</time>
      </trkpt>
      <trkpt lat="43.86353" lon="7.30973">
        <ele>459.64758300781</ele>
        <time>2013-05-12T07:51:11Z</time>
      </trkpt>
      <trkpt lat="43.86321" lon="7.30964">
        <ele>462.05078125</ele>
        <time>2013-05-12T07:51:23Z</time>
      </trkpt>
      <trkpt lat="43.8631" lon="7.30957">
        <ele>462.53137207031</ele>
        <time>2013-05-12T07:51:28Z</time>
      </trkpt>
      <trkpt lat="43.86287" lon="7.30951">
        <ele>463.97338867188</ele>
        <time>2013-05-12T07:51:38Z</time>
      </trkpt>
      <trkpt lat="43.8627" lon="7.30977">
        <ele>465.89611816406</ele>
        <time>2013-05-12T07:51:48Z</time>
      </trkpt>
      <trkpt lat="43.86243" lon="7.3103">
        <ele>468.78002929688</ele>
        <time>2013-05-12T07:52:04Z</time>
      </trkpt>
      <trkpt lat="43.86238" lon="7.31042">
        <ele>468.78002929688</ele>
        <time>2013-05-12T07:52:08Z</time>
      </trkpt>
      <trkpt lat="43.86226" lon="7.31047">
        <ele>469.2607421875</ele>
        <time>2013-05-12T07:52:13Z</time>
      </trkpt>
      <trkpt lat="43.86213" lon="7.31056">
        <ele>471.18334960938</ele>
        <time>2013-05-12T07:52:18Z</time>
      </trkpt>
      <trkpt lat="43.86211" lon="7.31067">
        <ele>472.14465332031</ele>
        <time>2013-05-12T07:52:23Z</time>
      </trkpt>
      <trkpt lat="43.86216" lon="7.3107">
        <ele>474.06726074219</ele>
        <time>2013-05-12T07:52:27Z</time>
      </trkpt>
      <trkpt lat="43.86219" lon="7.31072">
        <ele>474.06726074219</ele>
        <time>2013-05-12T07:52:29Z</time>
      </trkpt>
      <trkpt lat="43.86223" lon="7.31078">
        <ele>475.50927734375</ele>
        <time>2013-05-12T07:52:33Z</time>
      </trkpt>
      <trkpt lat="43.86225" lon="7.31082">
        <ele>475.50927734375</ele>
        <time>2013-05-12T07:52:35Z</time>
      </trkpt>
      <trkpt lat="43.86229" lon="7.3109">
        <ele>475.98986816406</ele>
        <time>2013-05-12T07:52:38Z</time>
      </trkpt>
      <trkpt lat="43.86236" lon="7.31114">
        <ele>479.3544921875</ele>
        <time>2013-05-12T07:52:51Z</time>
      </trkpt>
      <trkpt lat="43.86224" lon="7.31121">
        <ele>480.31591796875</ele>
        <time>2013-05-12T07:52:55Z</time>
      </trkpt>
      <trkpt lat="43.86217" lon="7.31124">
        <ele>480.79663085938</ele>
        <time>2013-05-12T07:52:59Z</time>
      </trkpt>
      <trkpt lat="43.86204" lon="7.31143">
        <ele>484.1611328125</ele>
        <time>2013-05-12T07:53:16Z</time>
      </trkpt>
      <trkpt lat="43.86204" lon="7.31143">
        <ele>487.52563476562</ele>
        <time>2013-05-12T07:53:26Z</time>
      </trkpt>
      <trkpt lat="43.86182" lon="7.3118">
        <ele>490.89038085938</ele>
        <time>2013-05-12T07:53:36Z</time>
      </trkpt>
      <trkpt lat="43.86181" lon="7.31184">
        <ele>491.37097167969</ele>
        <time>2013-05-12T07:53:38Z</time>
      </trkpt>
      <trkpt lat="43.86173" lon="7.3121">
        <ele>493.77429199219</ele>
        <time>2013-05-12T07:53:46Z</time>
      </trkpt>
      <trkpt lat="43.86169" lon="7.3122">
        <ele>493.77429199219</ele>
        <time>2013-05-12T07:53:49Z</time>
      </trkpt>
      <trkpt lat="43.86165" lon="7.3123">
        <ele>493.77429199219</ele>
        <time>2013-05-12T07:53:56Z</time>
      </trkpt>
      <trkpt lat="43.86162" lon="7.31295">
        <ele>495.21618652344</ele>
        <time>2013-05-12T07:54:10Z</time>
      </trkpt>
      <trkpt lat="43.86156" lon="7.3133">
        <ele>495.21618652344</ele>
        <time>2013-05-12T07:54:20Z</time>
      </trkpt>
      <trkpt lat="43.86146" lon="7.31359">
        <ele>495.69689941406</ele>
        <time>2013-05-12T07:54:30Z</time>
      </trkpt>
      <trkpt lat="43.86139" lon="7.31382">
        <ele>496.65832519531</ele>
        <time>2013-05-12T07:54:36Z</time>
      </trkpt>
      <trkpt lat="43.86143" lon="7.31387">
        <ele>497.13891601562</ele>
        <time>2013-05-12T07:54:38Z</time>
      </trkpt>
      <trkpt lat="43.86144" lon="7.3139">
        <ele>497.61962890625</ele>
        <time>2013-05-12T07:54:40Z</time>
      </trkpt>
      <trkpt lat="43.86138" lon="7.31422">
        <ele>496.177734375</ele>
        <time>2013-05-12T07:54:50Z</time>
      </trkpt>
      <trkpt lat="43.86125" lon="7.31425">
        <ele>498.10034179688</ele>
        <time>2013-05-12T07:54:59Z</time>
      </trkpt>
      <trkpt lat="43.8611" lon="7.31432">
        <ele>496.177734375</ele>
        <time>2013-05-12T07:55:06Z</time>
      </trkpt>
      <trkpt lat="43.86081" lon="7.31475">
        <ele>498.10034179688</ele>
        <time>2013-05-12T07:55:20Z</time>
      </trkpt>
      <trkpt lat="43.86067" lon="7.31481">
        <ele>497.61962890625</ele>
        <time>2013-05-12T07:55:25Z</time>
      </trkpt>
      <trkpt lat="43.86052" lon="7.31489">
        <ele>500.98413085938</ele>
        <time>2013-05-12T07:55:36Z</time>
      </trkpt>
      <trkpt lat="43.86051" lon="7.31491">
        <ele>500.98413085938</ele>
        <time>2013-05-12T07:55:37Z</time>
      </trkpt>
      <trkpt lat="43.86038" lon="7.31492">
        <ele>502.90673828125</ele>
        <time>2013-05-12T07:55:48Z</time>
      </trkpt>
      <trkpt lat="43.86029" lon="7.31495">
        <ele>505.79089355469</ele>
        <time>2013-05-12T07:55:58Z</time>
      </trkpt>
      <trkpt lat="43.86022" lon="7.31501">
        <ele>509.63610839844</ele>
        <time>2013-05-12T07:56:09Z</time>
      </trkpt>
      <trkpt lat="43.86016" lon="7.31507">
        <ele>512.52001953125</ele>
        <time>2013-05-12T07:56:20Z</time>
      </trkpt>
      <trkpt lat="43.86017" lon="7.31517">
        <ele>513.96203613281</ele>
        <time>2013-05-12T07:56:26Z</time>
      </trkpt>
      <trkpt lat="43.86021" lon="7.31542">
        <ele>517.32666015625</ele>
        <time>2013-05-12T07:56:41Z</time>
      </trkpt>
      <trkpt lat="43.86016" lon="7.31549">
        <ele>519.24926757812</ele>
        <time>2013-05-12T07:56:47Z</time>
      </trkpt>
      <trkpt lat="43.86009" lon="7.31561">
        <ele>522.61389160156</ele>
        <time>2013-05-12T07:57:00Z</time>
      </trkpt>
      <trkpt lat="43.86007" lon="7.3157">
        <ele>523.09460449219</ele>
        <time>2013-05-12T07:57:05Z</time>
      </trkpt>
      <trkpt lat="43.85997" lon="7.31583">
        <ele>525.97839355469</ele>
        <time>2013-05-12T07:57:14Z</time>
      </trkpt>
      <trkpt lat="43.85986" lon="7.31597">
        <ele>528.86254882812</ele>
        <time>2013-05-12T07:57:23Z</time>
      </trkpt>
      <trkpt lat="43.8598" lon="7.31601">
        <ele>529.82373046875</ele>
        <time>2013-05-12T07:57:28Z</time>
      </trkpt>
      <trkpt lat="43.85975" lon="7.31599">
        <ele>530.78515625</ele>
        <time>2013-05-12T07:57:32Z</time>
      </trkpt>
      <trkpt lat="43.85974" lon="7.31597">
        <ele>531.74633789062</ele>
        <time>2013-05-12T07:57:35Z</time>
      </trkpt>
      <trkpt lat="43.85965" lon="7.31596">
        <ele>535.59155273438</ele>
        <time>2013-05-12T07:57:46Z</time>
      </trkpt>
      <trkpt lat="43.85964" lon="7.31597">
        <ele>536.55310058594</ele>
        <time>2013-05-12T07:57:48Z</time>
      </trkpt>
      <trkpt lat="43.85961" lon="7.31602">
        <ele>538.47570800781</ele>
        <time>2013-05-12T07:57:55Z</time>
      </trkpt>
      <trkpt lat="43.85949" lon="7.31616">
        <ele>540.39831542969</ele>
        <time>2013-05-12T07:58:04Z</time>
      </trkpt>
      <trkpt lat="43.85948" lon="7.31619">
        <ele>541.84020996094</ele>
        <time>2013-05-12T07:58:06Z</time>
      </trkpt>
      <trkpt lat="43.85945" lon="7.31625">
        <ele>542.32092285156</ele>
        <time>2013-05-12T07:58:11Z</time>
      </trkpt>
      <trkpt lat="43.85943" lon="7.31625">
        <ele>542.80151367188</ele>
        <time>2013-05-12T07:58:14Z</time>
      </trkpt>
      <trkpt lat="43.85935" lon="7.31634">
        <ele>546.64685058594</ele>
        <time>2013-05-12T07:58:26Z</time>
      </trkpt>
      <trkpt lat="43.85931" lon="7.31647">
        <ele>548.5693359375</ele>
        <time>2013-05-12T07:58:36Z</time>
      </trkpt>
      <trkpt lat="43.85925" lon="7.31658">
        <ele>552.89526367188</ele>
        <time>2013-05-12T07:58:47Z</time>
      </trkpt>
      <trkpt lat="43.85923" lon="7.31663">
        <ele>553.3759765625</ele>
        <time>2013-05-12T07:58:51Z</time>
      </trkpt>
      <trkpt lat="43.85914" lon="7.31676">
        <ele>556.74072265625</ele>
        <time>2013-05-12T07:59:04Z</time>
      </trkpt>
      <trkpt lat="43.85907" lon="7.31686">
        <ele>560.10522460938</ele>
        <time>2013-05-12T07:59:13Z</time>
      </trkpt>
      <trkpt lat="43.85903" lon="7.31689">
        <ele>561.06665039062</ele>
        <time>2013-05-12T07:59:18Z</time>
      </trkpt>
      <trkpt lat="43.85894" lon="7.31704">
        <ele>563.95043945312</ele>
        <time>2013-05-12T07:59:31Z</time>
      </trkpt>
      <trkpt lat="43.85891" lon="7.31714">
        <ele>567.79565429688</ele>
        <time>2013-05-12T07:59:44Z</time>
      </trkpt>
      <trkpt lat="43.85887" lon="7.31724">
        <ele>571.16040039062</ele>
        <time>2013-05-12T07:59:55Z</time>
      </trkpt>
      <trkpt lat="43.85883" lon="7.31723">
        <ele>572.6025390625</ele>
        <time>2013-05-12T08:00:01Z</time>
      </trkpt>
      <trkpt lat="43.85873" lon="7.31725">
        <ele>575.486328125</ele>
        <time>2013-05-12T08:00:10Z</time>
      </trkpt>
      <trkpt lat="43.85869" lon="7.31729">
        <ele>575.96704101562</ele>
        <time>2013-05-12T08:00:13Z</time>
      </trkpt>
      <trkpt lat="43.85858" lon="7.31733">
        <ele>579.81225585938</ele>
        <time>2013-05-12T08:00:27Z</time>
      </trkpt>
      <trkpt lat="43.85857" lon="7.31734">
        <ele>579.81225585938</ele>
        <time>2013-05-12T08:00:28Z</time>
      </trkpt>
      <trkpt lat="43.85861" lon="7.31739">
        <ele>581.73486328125</ele>
        <time>2013-05-12T08:00:37Z</time>
      </trkpt>
      <trkpt lat="43.85863" lon="7.31745">
        <ele>583.1767578125</ele>
        <time>2013-05-12T08:00:42Z</time>
      </trkpt>
      <trkpt lat="43.85868" lon="7.31752">
        <ele>584.61889648438</ele>
        <time>2013-05-12T08:00:49Z</time>
      </trkpt>
      <trkpt lat="43.85868" lon="7.31759">
        <ele>586.54150390625</ele>
        <time>2013-05-12T08:00:56Z</time>
      </trkpt>
      <trkpt lat="43.85862" lon="7.31764">
        <ele>589.90625</ele>
        <time>2013-05-12T08:01:09Z</time>
      </trkpt>
      <trkpt lat="43.85869" lon="7.31775">
        <ele>593.27075195312</ele>
        <time>2013-05-12T08:01:25Z</time>
      </trkpt>
      <trkpt lat="43.85877" lon="7.31784">
        <ele>594.71264648438</ele>
        <time>2013-05-12T08:01:33Z</time>
      </trkpt>
      <trkpt lat="43.85887" lon="7.31797">
        <ele>596.15478515625</ele>
        <time>2013-05-12T08:01:45Z</time>
      </trkpt>
      <trkpt lat="43.85899" lon="7.318">
        <ele>598.55786132812</ele>
        <time>2013-05-12T08:01:54Z</time>
      </trkpt>
      <trkpt lat="43.85904" lon="7.31805">
        <ele>598.55786132812</ele>
        <time>2013-05-12T08:01:58Z</time>
      </trkpt>
      <trkpt lat="43.85913" lon="7.31807">
        <ele>599.51928710938</ele>
        <time>2013-05-12T08:02:03Z</time>
      </trkpt>
      <trkpt lat="43.85927" lon="7.31816">
        <ele>600.48071289062</ele>
        <time>2013-05-12T08:02:09Z</time>
      </trkpt>
      <trkpt lat="43.85936" lon="7.31821">
        <ele>602.40307617188</ele>
        <time>2013-05-12T08:02:19Z</time>
      </trkpt>
      <trkpt lat="43.85943" lon="7.31824">
        <ele>602.8837890625</ele>
        <time>2013-05-12T08:02:23Z</time>
      </trkpt>
      <trkpt lat="43.85945" lon="7.31827">
        <ele>603.36450195312</ele>
        <time>2013-05-12T08:02:25Z</time>
      </trkpt>
      <trkpt lat="43.85957" lon="7.31847">
        <ele>606.24853515625</ele>
        <time>2013-05-12T08:02:35Z</time>
      </trkpt>
      <trkpt lat="43.85965" lon="7.31869">
        <ele>610.09375</ele>
        <time>2013-05-12T08:02:48Z</time>
      </trkpt>
      <trkpt lat="43.85967" lon="7.31876">
        <ele>611.05517578125</ele>
        <time>2013-05-12T08:02:52Z</time>
      </trkpt>
      <trkpt lat="43.85973" lon="7.31882">
        <ele>612.0166015625</ele>
        <time>2013-05-12T08:02:57Z</time>
      </trkpt>
      <trkpt lat="43.85982" lon="7.3189">
        <ele>612.97778320312</ele>
        <time>2013-05-12T08:03:04Z</time>
      </trkpt>
      <trkpt lat="43.85987" lon="7.31893">
        <ele>612.97778320312</ele>
        <time>2013-05-12T08:03:06Z</time>
      </trkpt>
      <trkpt lat="43.85991" lon="7.31897">
        <ele>614.41967773438</ele>
        <time>2013-05-12T08:03:10Z</time>
      </trkpt>
      <trkpt lat="43.86005" lon="7.3191">
        <ele>618.26489257812</ele>
        <time>2013-05-12T08:03:21Z</time>
      </trkpt>
      <trkpt lat="43.8601" lon="7.3192">
        <ele>618.26489257812</ele>
        <time>2013-05-12T08:03:25Z</time>
      </trkpt>
      <trkpt lat="43.86015" lon="7.31934">
        <ele>619.70703125</ele>
        <time>2013-05-12T08:03:30Z</time>
      </trkpt>
      <trkpt lat="43.86015" lon="7.31946">
        <ele>620.18774414062</ele>
        <time>2013-05-12T08:03:34Z</time>
      </trkpt>
      <trkpt lat="43.86018" lon="7.31955">
        <ele>621.62963867188</ele>
        <time>2013-05-12T08:03:39Z</time>
      </trkpt>
      <trkpt lat="43.86021" lon="7.31965">
        <ele>622.59106445312</ele>
        <time>2013-05-12T08:03:43Z</time>
      </trkpt>
      <trkpt lat="43.86023" lon="7.31983">
        <ele>625.95556640625</ele>
        <time>2013-05-12T08:03:55Z</time>
      </trkpt>
      <trkpt lat="43.86023" lon="7.31993">
        <ele>625.95556640625</ele>
        <time>2013-05-12T08:04:00Z</time>
      </trkpt>
      <trkpt lat="43.86024" lon="7.32002">
        <ele>627.39770507812</ele>
        <time>2013-05-12T08:04:06Z</time>
      </trkpt>
      <trkpt lat="43.86023" lon="7.32007">
        <ele>628.35888671875</ele>
        <time>2013-05-12T08:04:09Z</time>
      </trkpt>
      <trkpt lat="43.86026" lon="7.32016">
        <ele>630.28149414062</ele>
        <time>2013-05-12T08:04:15Z</time>
      </trkpt>
      <trkpt lat="43.86032" lon="7.32031">
        <ele>634.607421875</ele>
        <time>2013-05-12T08:04:28Z</time>
      </trkpt>
      <trkpt lat="43.86031" lon="7.32034">
        <ele>635.08813476562</ele>
        <time>2013-05-12T08:04:31Z</time>
      </trkpt>
      <trkpt lat="43.8603" lon="7.32046">
        <ele>637.0107421875</ele>
        <time>2013-05-12T08:04:39Z</time>
      </trkpt>
      <trkpt lat="43.86026" lon="7.32048">
        <ele>637.49145507812</ele>
        <time>2013-05-12T08:04:42Z</time>
      </trkpt>
      <trkpt lat="43.86022" lon="7.32048">
        <ele>637.97216796875</ele>
        <time>2013-05-12T08:04:44Z</time>
      </trkpt>
      <trkpt lat="43.86017" lon="7.32043">
        <ele>638.45288085938</ele>
        <time>2013-05-12T08:04:47Z</time>
      </trkpt>
      <trkpt lat="43.85998" lon="7.32029">
        <ele>641.33666992188</ele>
        <time>2013-05-12T08:04:59Z</time>
      </trkpt>
      <trkpt lat="43.8599" lon="7.3203">
        <ele>644.701171875</ele>
        <time>2013-05-12T08:05:09Z</time>
      </trkpt>
      <trkpt lat="43.85984" lon="7.32033">
        <ele>646.6240234375</ele>
        <time>2013-05-12T08:05:16Z</time>
      </trkpt>
      <trkpt lat="43.85969" lon="7.32041">
        <ele>650.94970703125</ele>
        <time>2013-05-12T08:05:30Z</time>
      </trkpt>
      <trkpt lat="43.85966" lon="7.32042">
        <ele>651.43041992188</ele>
        <time>2013-05-12T08:05:33Z</time>
      </trkpt>
      <trkpt lat="43.85949" lon="7.32048">
        <ele>653.35327148438</ele>
        <time>2013-05-12T08:05:41Z</time>
      </trkpt>
      <trkpt lat="43.85928" lon="7.32054">
        <ele>655.75659179688</ele>
        <time>2013-05-12T08:05:53Z</time>
      </trkpt>
      <trkpt lat="43.85913" lon="7.32051">
        <ele>658.64038085938</ele>
        <time>2013-05-12T08:06:03Z</time>
      </trkpt>
      <trkpt lat="43.85898" lon="7.32065">
        <ele>659.60180664062</ele>
        <time>2013-05-12T08:06:08Z</time>
      </trkpt>
      <trkpt lat="43.8589" lon="7.32066">
        <ele>660.08227539062</ele>
        <time>2013-05-12T08:06:12Z</time>
      </trkpt>
      <trkpt lat="43.85878" lon="7.32059">
        <ele>660.08227539062</ele>
        <time>2013-05-12T08:06:17Z</time>
      </trkpt>
      <trkpt lat="43.85866" lon="7.32061">
        <ele>661.04370117188</ele>
        <time>2013-05-12T08:06:21Z</time>
      </trkpt>
      <trkpt lat="43.8586" lon="7.32062">
        <ele>661.04370117188</ele>
        <time>2013-05-12T08:06:23Z</time>
      </trkpt>
      <trkpt lat="43.85848" lon="7.32059">
        <ele>662.96630859375</ele>
        <time>2013-05-12T08:06:29Z</time>
      </trkpt>
      <trkpt lat="43.85814" lon="7.3206">
        <ele>662.48559570312</ele>
        <time>2013-05-12T08:06:40Z</time>
      </trkpt>
      <trkpt lat="43.85808" lon="7.32044">
        <ele>662.00512695312</ele>
        <time>2013-05-12T08:06:45Z</time>
      </trkpt>
      <trkpt lat="43.858" lon="7.32036">
        <ele>662.48559570312</ele>
        <time>2013-05-12T08:06:48Z</time>
      </trkpt>
      <trkpt lat="43.85793" lon="7.32022">
        <ele>661.5244140625</ele>
        <time>2013-05-12T08:06:52Z</time>
      </trkpt>
      <trkpt lat="43.85784" lon="7.3201">
        <ele>663.92749023438</ele>
        <time>2013-05-12T08:06:58Z</time>
      </trkpt>
      <trkpt lat="43.85769" lon="7.32006">
        <ele>666.33081054688</ele>
        <time>2013-05-12T08:07:05Z</time>
      </trkpt>
      <trkpt lat="43.85723" lon="7.32008">
        <ele>668.25366210938</ele>
        <time>2013-05-12T08:07:20Z</time>
      </trkpt>
      <trkpt lat="43.85717" lon="7.32005">
        <ele>669.69580078125</ele>
        <time>2013-05-12T08:07:23Z</time>
      </trkpt>
      <trkpt lat="43.85706" lon="7.32">
        <ele>673.06030273438</ele>
        <time>2013-05-12T08:07:36Z</time>
      </trkpt>
      <trkpt lat="43.85702" lon="7.31994">
        <ele>674.021484375</ele>
        <time>2013-05-12T08:07:41Z</time>
      </trkpt>
      <trkpt lat="43.857" lon="7.31984">
        <ele>674.021484375</ele>
        <time>2013-05-12T08:07:45Z</time>
      </trkpt>
      <trkpt lat="43.85691" lon="7.31954">
        <ele>677.86669921875</ele>
        <time>2013-05-12T08:08:01Z</time>
      </trkpt>
      <trkpt lat="43.85687" lon="7.31941">
        <ele>678.34741210938</ele>
        <time>2013-05-12T08:08:05Z</time>
      </trkpt>
      <trkpt lat="43.85684" lon="7.31929">
        <ele>679.30859375</ele>
        <time>2013-05-12T08:08:09Z</time>
      </trkpt>
      <trkpt lat="43.85688" lon="7.31885">
        <ele>681.2314453125</ele>
        <time>2013-05-12T08:08:23Z</time>
      </trkpt>
      <trkpt lat="43.85684" lon="7.31874">
        <ele>682.67333984375</ele>
        <time>2013-05-12T08:08:27Z</time>
      </trkpt>
      <trkpt lat="43.85682" lon="7.31869">
        <ele>683.63452148438</ele>
        <time>2013-05-12T08:08:29Z</time>
      </trkpt>
      <trkpt lat="43.85678" lon="7.31864">
        <ele>683.63452148438</ele>
        <time>2013-05-12T08:08:32Z</time>
      </trkpt>
      <trkpt lat="43.85674" lon="7.31858">
        <ele>684.59619140625</ele>
        <time>2013-05-12T08:08:36Z</time>
      </trkpt>
      <trkpt lat="43.85652" lon="7.31852">
        <ele>688.44140625</ele>
        <time>2013-05-12T08:08:48Z</time>
      </trkpt>
      <trkpt lat="43.85638" lon="7.31851">
        <ele>690.36401367188</ele>
        <time>2013-05-12T08:08:58Z</time>
      </trkpt>
      <trkpt lat="43.85621" lon="7.31855">
        <ele>693.24780273438</ele>
        <time>2013-05-12T08:09:07Z</time>
      </trkpt>
      <trkpt lat="43.85617" lon="7.31852">
        <ele>693.24780273438</ele>
        <time>2013-05-12T08:09:09Z</time>
      </trkpt>
      <trkpt lat="43.85609" lon="7.31855">
        <ele>694.20922851562</ele>
        <time>2013-05-12T08:09:12Z</time>
      </trkpt>
      <trkpt lat="43.85607" lon="7.31851">
        <ele>693.728515625</ele>
        <time>2013-05-12T08:09:15Z</time>
      </trkpt>
      <trkpt lat="43.856" lon="7.31847">
        <ele>693.728515625</ele>
        <time>2013-05-12T08:09:19Z</time>
      </trkpt>
      <trkpt lat="43.85585" lon="7.31847">
        <ele>693.24780273438</ele>
        <time>2013-05-12T08:09:24Z</time>
      </trkpt>
      <trkpt lat="43.85548" lon="7.31884">
        <ele>695.17041015625</ele>
        <time>2013-05-12T08:09:39Z</time>
      </trkpt>
      <trkpt lat="43.8552" lon="7.31906">
        <ele>697.57373046875</ele>
        <time>2013-05-12T08:09:53Z</time>
      </trkpt>
      <trkpt lat="43.85511" lon="7.31913">
        <ele>698.53491210938</ele>
        <time>2013-05-12T08:09:57Z</time>
      </trkpt>
      <trkpt lat="43.8548" lon="7.31921">
        <ele>700.9384765625</ele>
        <time>2013-05-12T08:10:08Z</time>
      </trkpt>
      <trkpt lat="43.85475" lon="7.3191">
        <ele>703.341796875</ele>
        <time>2013-05-12T08:10:19Z</time>
      </trkpt>
      <trkpt lat="43.85454" lon="7.31891">
        <ele>705.7451171875</ele>
        <time>2013-05-12T08:10:31Z</time>
      </trkpt>
      <trkpt lat="43.8545" lon="7.31887">
        <ele>706.70629882812</ele>
        <time>2013-05-12T08:10:33Z</time>
      </trkpt>
      <trkpt lat="43.85443" lon="7.31887">
        <ele>707.18701171875</ele>
        <time>2013-05-12T08:10:36Z</time>
      </trkpt>
      <trkpt lat="43.85437" lon="7.31862">
        <ele>709.10961914062</ele>
        <time>2013-05-12T08:10:46Z</time>
      </trkpt>
      <trkpt lat="43.85425" lon="7.31858">
        <ele>710.07080078125</ele>
        <time>2013-05-12T08:10:50Z</time>
      </trkpt>
      <trkpt lat="43.854" lon="7.31824">
        <ele>709.59033203125</ele>
        <time>2013-05-12T08:11:05Z</time>
      </trkpt>
      <trkpt lat="43.85378" lon="7.31829">
        <ele>710.07080078125</ele>
        <time>2013-05-12T08:11:11Z</time>
      </trkpt>
      <trkpt lat="43.85369" lon="7.31823">
        <ele>710.55151367188</ele>
        <time>2013-05-12T08:11:15Z</time>
      </trkpt>
      <trkpt lat="43.8536" lon="7.3181">
        <ele>711.99365234375</ele>
        <time>2013-05-12T08:11:22Z</time>
      </trkpt>
      <trkpt lat="43.85339" lon="7.318">
        <ele>712.95483398438</ele>
        <time>2013-05-12T08:11:30Z</time>
      </trkpt>
      <trkpt lat="43.85319" lon="7.31783">
        <ele>713.435546875</ele>
        <time>2013-05-12T08:11:37Z</time>
      </trkpt>
      <trkpt lat="43.85278" lon="7.31769">
        <ele>716.31958007812</ele>
        <time>2013-05-12T08:11:51Z</time>
      </trkpt>
      <trkpt lat="43.85249" lon="7.31771">
        <ele>718.2421875</ele>
        <time>2013-05-12T08:12:03Z</time>
      </trkpt>
      <trkpt lat="43.85215" lon="7.3178">
        <ele>720.6455078125</ele>
        <time>2013-05-12T08:12:17Z</time>
      </trkpt>
      <trkpt lat="43.8521" lon="7.31778">
        <ele>721.60668945312</ele>
        <time>2013-05-12T08:12:22Z</time>
      </trkpt>
      <trkpt lat="43.8521" lon="7.31773">
        <ele>722.08740234375</ele>
        <time>2013-05-12T08:12:25Z</time>
      </trkpt>
      <trkpt lat="43.85208" lon="7.31761">
        <ele>725.9326171875</ele>
        <time>2013-05-12T08:12:37Z</time>
      </trkpt>
      <trkpt lat="43.85208" lon="7.31746">
        <ele>726.41333007812</ele>
        <time>2013-05-12T08:12:42Z</time>
      </trkpt>
      <trkpt lat="43.85203" lon="7.31738">
        <ele>727.37475585938</ele>
        <time>2013-05-12T08:12:46Z</time>
      </trkpt>
      <trkpt lat="43.85201" lon="7.31732">
        <ele>727.85522460938</ele>
        <time>2013-05-12T08:12:48Z</time>
      </trkpt>
      <trkpt lat="43.85192" lon="7.3172">
        <ele>729.29711914062</ele>
        <time>2013-05-12T08:12:54Z</time>
      </trkpt>
      <trkpt lat="43.85189" lon="7.31699">
        <ele>731.70043945312</ele>
        <time>2013-05-12T08:13:03Z</time>
      </trkpt>
      <trkpt lat="43.85167" lon="7.31689">
        <ele>734.58471679688</ele>
        <time>2013-05-12T08:13:17Z</time>
      </trkpt>
      <trkpt lat="43.85139" lon="7.31679">
        <ele>734.10400390625</ele>
        <time>2013-05-12T08:13:24Z</time>
      </trkpt>
      <trkpt lat="43.85112" lon="7.31671">
        <ele>735.0654296875</ele>
        <time>2013-05-12T08:13:33Z</time>
      </trkpt>
      <trkpt lat="43.85107" lon="7.31662">
        <ele>734.58471679688</ele>
        <time>2013-05-12T08:13:37Z</time>
      </trkpt>
      <trkpt lat="43.85106" lon="7.31656">
        <ele>735.0654296875</ele>
        <time>2013-05-12T08:13:39Z</time>
      </trkpt>
      <trkpt lat="43.85106" lon="7.31643">
        <ele>735.5458984375</ele>
        <time>2013-05-12T08:13:45Z</time>
      </trkpt>
      <trkpt lat="43.85106" lon="7.31639">
        <ele>736.02661132812</ele>
        <time>2013-05-12T08:13:47Z</time>
      </trkpt>
      <trkpt lat="43.851" lon="7.31632">
        <ele>736.50732421875</ele>
        <time>2013-05-12T08:13:51Z</time>
      </trkpt>
      <trkpt lat="43.85097" lon="7.31629">
        <ele>736.50732421875</ele>
        <time>2013-05-12T08:13:53Z</time>
      </trkpt>
      <trkpt lat="43.85071" lon="7.31582">
        <ele>736.02661132812</ele>
        <time>2013-05-12T08:14:08Z</time>
      </trkpt>
      <trkpt lat="43.85052" lon="7.3157">
        <ele>735.5458984375</ele>
        <time>2013-05-12T08:14:14Z</time>
      </trkpt>
      <trkpt lat="43.85024" lon="7.31565">
        <ele>736.02661132812</ele>
        <time>2013-05-12T08:14:21Z</time>
      </trkpt>
      <trkpt lat="43.85008" lon="7.31574">
        <ele>736.98779296875</ele>
        <time>2013-05-12T08:14:25Z</time>
      </trkpt>
      <trkpt lat="43.84954" lon="7.31583">
        <ele>737.94921875</ele>
        <time>2013-05-12T08:14:39Z</time>
      </trkpt>
      <trkpt lat="43.84948" lon="7.31586">
        <ele>737.94921875</ele>
        <time>2013-05-12T08:14:41Z</time>
      </trkpt>
      <trkpt lat="43.84935" lon="7.31596">
        <ele>740.3525390625</ele>
        <time>2013-05-12T08:14:49Z</time>
      </trkpt>
      <trkpt lat="43.84928" lon="7.31604">
        <ele>742.27514648438</ele>
        <time>2013-05-12T08:14:57Z</time>
      </trkpt>
      <trkpt lat="43.84923" lon="7.3161">
        <ele>743.236328125</ele>
        <time>2013-05-12T08:15:03Z</time>
      </trkpt>
      <trkpt lat="43.84897" lon="7.31628">
        <ele>743.71704101562</ele>
        <time>2013-05-12T08:15:14Z</time>
      </trkpt>
      <trkpt lat="43.84866" lon="7.31623">
        <ele>741.31372070312</ele>
        <time>2013-05-12T08:15:24Z</time>
      </trkpt>
      <trkpt lat="43.84827" lon="7.31621">
        <ele>738.91064453125</ele>
        <time>2013-05-12T08:15:36Z</time>
      </trkpt>
      <trkpt lat="43.84798" lon="7.31619">
        <ele>738.42993164062</ele>
        <time>2013-05-12T08:15:47Z</time>
      </trkpt>
      <trkpt lat="43.84765" lon="7.3162">
        <ele>741.79443359375</ele>
        <time>2013-05-12T08:16:03Z</time>
      </trkpt>
      <trkpt lat="43.84765" lon="7.3162">
        <ele>744.19775390625</ele>
        <time>2013-05-12T08:16:16Z</time>
      </trkpt>
      <trkpt lat="43.84731" lon="7.31621">
        <ele>742.27514648438</ele>
        <time>2013-05-12T08:16:21Z</time>
      </trkpt>
      <trkpt lat="43.84729" lon="7.31658">
        <ele>741.31372070312</ele>
        <time>2013-05-12T08:16:23Z</time>
      </trkpt>
      <trkpt lat="43.84732" lon="7.31665">
        <ele>740.3525390625</ele>
        <time>2013-05-12T08:16:25Z</time>
      </trkpt>
      <trkpt lat="43.84734" lon="7.31673">
        <ele>739.39111328125</ele>
        <time>2013-05-12T08:16:27Z</time>
      </trkpt>
      <trkpt lat="43.84738" lon="7.31683">
        <ele>736.98779296875</ele>
        <time>2013-05-12T08:16:30Z</time>
      </trkpt>
      <trkpt lat="43.84745" lon="7.31718">
        <ele>733.62329101562</ele>
        <time>2013-05-12T08:16:37Z</time>
      </trkpt>
      <trkpt lat="43.84747" lon="7.31729">
        <ele>733.142578125</ele>
        <time>2013-05-12T08:16:39Z</time>
      </trkpt>
      <trkpt lat="43.8475" lon="7.31775">
        <ele>730.7392578125</ele>
        <time>2013-05-12T08:16:48Z</time>
      </trkpt>
      <trkpt lat="43.84768" lon="7.31814">
        <ele>728.3359375</ele>
        <time>2013-05-12T08:16:56Z</time>
      </trkpt>
      <trkpt lat="43.84774" lon="7.31825">
        <ele>727.37475585938</ele>
        <time>2013-05-12T08:16:58Z</time>
      </trkpt>
      <trkpt lat="43.84772" lon="7.3185">
        <ele>724.97143554688</ele>
        <time>2013-05-12T08:17:01Z</time>
      </trkpt>
      <trkpt lat="43.8477" lon="7.31856">
        <ele>724.01000976562</ele>
        <time>2013-05-12T08:17:02Z</time>
      </trkpt>
      <trkpt lat="43.8477" lon="7.31867">
        <ele>723.048828125</ele>
        <time>2013-05-12T08:17:05Z</time>
      </trkpt>
      <trkpt lat="43.84774" lon="7.31879">
        <ele>721.60668945312</ele>
        <time>2013-05-12T08:17:08Z</time>
      </trkpt>
      <trkpt lat="43.84784" lon="7.31898">
        <ele>719.68432617188</ele>
        <time>2013-05-12T08:17:12Z</time>
      </trkpt>
      <trkpt lat="43.84802" lon="7.31926">
        <ele>716.31958007812</ele>
        <time>2013-05-12T08:17:20Z</time>
      </trkpt>
      <trkpt lat="43.8481" lon="7.31936">
        <ele>712.47412109375</ele>
        <time>2013-05-12T08:17:23Z</time>
      </trkpt>
      <trkpt lat="43.84813" lon="7.31939">
        <ele>712.47412109375</ele>
        <time>2013-05-12T08:17:24Z</time>
      </trkpt>
      <trkpt lat="43.84822" lon="7.3195">
        <ele>710.55151367188</ele>
        <time>2013-05-12T08:17:28Z</time>
      </trkpt>
      <trkpt lat="43.84828" lon="7.3196">
        <ele>707.66772460938</ele>
        <time>2013-05-12T08:17:31Z</time>
      </trkpt>
      <trkpt lat="43.84832" lon="7.31967">
        <ele>704.30322265625</ele>
        <time>2013-05-12T08:17:34Z</time>
      </trkpt>
      <trkpt lat="43.84833" lon="7.31969">
        <ele>704.30322265625</ele>
        <time>2013-05-12T08:17:35Z</time>
      </trkpt>
      <trkpt lat="43.84836" lon="7.31977">
        <ele>702.38037109375</ele>
        <time>2013-05-12T08:17:37Z</time>
      </trkpt>
      <trkpt lat="43.84863" lon="7.31994">
        <ele>699.015625</ele>
        <time>2013-05-12T08:17:44Z</time>
      </trkpt>
      <trkpt lat="43.84865" lon="7.31997">
        <ele>699.015625</ele>
        <time>2013-05-12T08:17:45Z</time>
      </trkpt>
      <trkpt lat="43.84867" lon="7.32001">
        <ele>698.05444335938</ele>
        <time>2013-05-12T08:17:46Z</time>
      </trkpt>
      <trkpt lat="43.84875" lon="7.32023">
        <ele>695.17041015625</ele>
        <time>2013-05-12T08:17:51Z</time>
      </trkpt>
      <trkpt lat="43.84876" lon="7.32028">
        <ele>693.728515625</ele>
        <time>2013-05-12T08:17:53Z</time>
      </trkpt>
      <trkpt lat="43.84874" lon="7.32062">
        <ele>689.88330078125</ele>
        <time>2013-05-12T08:17:59Z</time>
      </trkpt>
      <trkpt lat="43.8486" lon="7.32077">
        <ele>688.92211914062</ele>
        <time>2013-05-12T08:18:01Z</time>
      </trkpt>
      <trkpt lat="43.84865" lon="7.32082">
        <ele>687.47998046875</ele>
        <time>2013-05-12T08:18:03Z</time>
      </trkpt>
      <trkpt lat="43.84876" lon="7.32089">
        <ele>686.0380859375</ele>
        <time>2013-05-12T08:18:06Z</time>
      </trkpt>
      <trkpt lat="43.84881" lon="7.32092">
        <ele>684.59619140625</ele>
        <time>2013-05-12T08:18:08Z</time>
      </trkpt>
      <trkpt lat="43.84887" lon="7.32094">
        <ele>682.67333984375</ele>
        <time>2013-05-12T08:18:10Z</time>
      </trkpt>
      <trkpt lat="43.8489" lon="7.32096">
        <ele>681.2314453125</ele>
        <time>2013-05-12T08:18:11Z</time>
      </trkpt>
      <trkpt lat="43.84908" lon="7.32096">
        <ele>678.828125</ele>
        <time>2013-05-12T08:18:15Z</time>
      </trkpt>
      <trkpt lat="43.84908" lon="7.32078">
        <ele>676.90551757812</ele>
        <time>2013-05-12T08:18:17Z</time>
      </trkpt>
      <trkpt lat="43.84914" lon="7.32078">
        <ele>674.50219726562</ele>
        <time>2013-05-12T08:18:19Z</time>
      </trkpt>
      <trkpt lat="43.84921" lon="7.32082">
        <ele>672.09887695312</ele>
        <time>2013-05-12T08:18:22Z</time>
      </trkpt>
      <trkpt lat="43.84924" lon="7.32092">
        <ele>669.69580078125</ele>
        <time>2013-05-12T08:18:25Z</time>
      </trkpt>
      <trkpt lat="43.84933" lon="7.32086">
        <ele>668.25366210938</ele>
        <time>2013-05-12T08:18:28Z</time>
      </trkpt>
      <trkpt lat="43.84923" lon="7.32084">
        <ele>666.33081054688</ele>
        <time>2013-05-12T08:18:30Z</time>
      </trkpt>
      <trkpt lat="43.84923" lon="7.32084">
        <ele>665.36962890625</ele>
        <time>2013-05-12T08:18:31Z</time>
      </trkpt>
      <trkpt lat="43.84934" lon="7.32068">
        <ele>663.92749023438</ele>
        <time>2013-05-12T08:18:33Z</time>
      </trkpt>
      <trkpt lat="43.84933" lon="7.32063">
        <ele>662.96630859375</ele>
        <time>2013-05-12T08:18:35Z</time>
      </trkpt>
      <trkpt lat="43.84929" lon="7.32048">
        <ele>659.12109375</ele>
        <time>2013-05-12T08:18:40Z</time>
      </trkpt>
      <trkpt lat="43.84928" lon="7.32044">
        <ele>658.15991210938</ele>
        <time>2013-05-12T08:18:42Z</time>
      </trkpt>
      <trkpt lat="43.8493" lon="7.32">
        <ele>655.27587890625</ele>
        <time>2013-05-12T08:18:52Z</time>
      </trkpt>
      <trkpt lat="43.84932" lon="7.31994">
        <ele>653.833984375</ele>
        <time>2013-05-12T08:18:54Z</time>
      </trkpt>
      <trkpt lat="43.84929" lon="7.3199">
        <ele>652.39184570312</ele>
        <time>2013-05-12T08:18:56Z</time>
      </trkpt>
      <trkpt lat="43.84929" lon="7.31983">
        <ele>649.5078125</ele>
        <time>2013-05-12T08:18:59Z</time>
      </trkpt>
      <trkpt lat="43.84929" lon="7.31971">
        <ele>647.58520507812</ele>
        <time>2013-05-12T08:19:02Z</time>
      </trkpt>
      <trkpt lat="43.84928" lon="7.31962">
        <ele>645.66259765625</ele>
        <time>2013-05-12T08:19:04Z</time>
      </trkpt>
      <trkpt lat="43.84931" lon="7.3195">
        <ele>642.77880859375</ele>
        <time>2013-05-12T08:19:08Z</time>
      </trkpt>
      <trkpt lat="43.84926" lon="7.31941">
        <ele>640.37548828125</ele>
        <time>2013-05-12T08:19:10Z</time>
      </trkpt>
      <trkpt lat="43.84922" lon="7.31932">
        <ele>637.97216796875</ele>
        <time>2013-05-12T08:19:12Z</time>
      </trkpt>
      <trkpt lat="43.84925" lon="7.3192">
        <ele>636.04956054688</ele>
        <time>2013-05-12T08:19:15Z</time>
      </trkpt>
      <trkpt lat="43.84924" lon="7.31905">
        <ele>633.64599609375</ele>
        <time>2013-05-12T08:19:19Z</time>
      </trkpt>
      <trkpt lat="43.84921" lon="7.319">
        <ele>631.72338867188</ele>
        <time>2013-05-12T08:19:21Z</time>
      </trkpt>
      <trkpt lat="43.84915" lon="7.31889">
        <ele>628.83959960938</ele>
        <time>2013-05-12T08:19:26Z</time>
      </trkpt>
      <trkpt lat="43.84915" lon="7.31888">
        <ele>628.83959960938</ele>
        <time>2013-05-12T08:19:27Z</time>
      </trkpt>
      <trkpt lat="43.84914" lon="7.31885">
        <ele>627.39770507812</ele>
        <time>2013-05-12T08:19:29Z</time>
      </trkpt>
      <trkpt lat="43.84915" lon="7.31883">
        <ele>625.95556640625</ele>
        <time>2013-05-12T08:19:31Z</time>
      </trkpt>
      <trkpt lat="43.84915" lon="7.31882">
        <ele>624.513671875</ele>
        <time>2013-05-12T08:19:32Z</time>
      </trkpt>
      <trkpt lat="43.84916" lon="7.31872">
        <ele>622.1103515625</ele>
        <time>2013-05-12T08:19:36Z</time>
      </trkpt>
      <trkpt lat="43.84917" lon="7.31869">
        <ele>620.66845703125</ele>
        <time>2013-05-12T08:19:38Z</time>
      </trkpt>
      <trkpt lat="43.8492" lon="7.31869">
        <ele>619.22631835938</ele>
        <time>2013-05-12T08:19:41Z</time>
      </trkpt>
      <trkpt lat="43.84925" lon="7.31869">
        <ele>617.3037109375</ele>
        <time>2013-05-12T08:19:44Z</time>
      </trkpt>
      <trkpt lat="43.84928" lon="7.31872">
        <ele>616.34228515625</ele>
        <time>2013-05-12T08:19:46Z</time>
      </trkpt>
      <trkpt lat="43.84932" lon="7.31873">
        <ele>614.900390625</ele>
        <time>2013-05-12T08:19:48Z</time>
      </trkpt>
      <trkpt lat="43.84942" lon="7.31879">
        <ele>612.4970703125</ele>
        <time>2013-05-12T08:19:52Z</time>
      </trkpt>
      <trkpt lat="43.8495" lon="7.31882">
        <ele>610.09375</ele>
        <time>2013-05-12T08:19:55Z</time>
      </trkpt>
      <trkpt lat="43.84973" lon="7.31923">
        <ele>609.61328125</ele>
        <time>2013-05-12T08:20:10Z</time>
      </trkpt>
      <trkpt lat="43.84975" lon="7.31933">
        <ele>609.61328125</ele>
        <time>2013-05-12T08:20:12Z</time>
      </trkpt>
      <trkpt lat="43.84979" lon="7.3195">
        <ele>609.13256835938</ele>
        <time>2013-05-12T08:20:17Z</time>
      </trkpt>
      <trkpt lat="43.84983" lon="7.31975">
        <ele>608.65185546875</ele>
        <time>2013-05-12T08:20:24Z</time>
      </trkpt>
      <trkpt lat="43.84986" lon="7.32018">
        <ele>607.2099609375</ele>
        <time>2013-05-12T08:20:36Z</time>
      </trkpt>
      <trkpt lat="43.8498" lon="7.32034">
        <ele>604.806640625</ele>
        <time>2013-05-12T08:20:41Z</time>
      </trkpt>
      <trkpt lat="43.84985" lon="7.32046">
        <ele>603.36450195312</ele>
        <time>2013-05-12T08:20:45Z</time>
      </trkpt>
      <trkpt lat="43.84998" lon="7.32059">
        <ele>600.48071289062</ele>
        <time>2013-05-12T08:20:53Z</time>
      </trkpt>
      <trkpt lat="43.84998" lon="7.32067">
        <ele>598.07739257812</ele>
        <time>2013-05-12T08:20:56Z</time>
      </trkpt>
      <trkpt lat="43.85002" lon="7.321">
        <ele>596.15478515625</ele>
        <time>2013-05-12T08:21:04Z</time>
      </trkpt>
      <trkpt lat="43.85003" lon="7.32105">
        <ele>594.71264648438</ele>
        <time>2013-05-12T08:21:06Z</time>
      </trkpt>
      <trkpt lat="43.85004" lon="7.32147">
        <ele>590.38696289062</ele>
        <time>2013-05-12T08:21:16Z</time>
      </trkpt>
      <trkpt lat="43.85004" lon="7.32151">
        <ele>590.38696289062</ele>
        <time>2013-05-12T08:21:17Z</time>
      </trkpt>
      <trkpt lat="43.85005" lon="7.32159">
        <ele>588.94506835938</ele>
        <time>2013-05-12T08:21:19Z</time>
      </trkpt>
      <trkpt lat="43.85005" lon="7.32166">
        <ele>587.50268554688</ele>
        <time>2013-05-12T08:21:21Z</time>
      </trkpt>
      <trkpt lat="43.85004" lon="7.32172">
        <ele>585.580078125</ele>
        <time>2013-05-12T08:21:23Z</time>
      </trkpt>
      <trkpt lat="43.85003" lon="7.32173">
        <ele>583.65747070312</ele>
        <time>2013-05-12T08:21:24Z</time>
      </trkpt>
      <trkpt lat="43.85019" lon="7.32149">
        <ele>580.29296875</ele>
        <time>2013-05-12T08:21:32Z</time>
      </trkpt>
      <trkpt lat="43.85026" lon="7.32137">
        <ele>578.37036132812</ele>
        <time>2013-05-12T08:21:35Z</time>
      </trkpt>
      <trkpt lat="43.8503" lon="7.32119">
        <ele>576.44775390625</ele>
        <time>2013-05-12T08:21:38Z</time>
      </trkpt>
      <trkpt lat="43.85027" lon="7.32107">
        <ele>575.005859375</ele>
        <time>2013-05-12T08:21:40Z</time>
      </trkpt>
      <trkpt lat="43.85026" lon="7.32103">
        <ele>574.52514648438</ele>
        <time>2013-05-12T08:21:41Z</time>
      </trkpt>
      <trkpt lat="43.85004" lon="7.32103">
        <ele>572.6025390625</ele>
        <time>2013-05-12T08:21:45Z</time>
      </trkpt>
      <trkpt lat="43.85029" lon="7.32113">
        <ele>571.64086914062</ele>
        <time>2013-05-12T08:21:48Z</time>
      </trkpt>
      <trkpt lat="43.8503" lon="7.32121">
        <ele>571.16040039062</ele>
        <time>2013-05-12T08:21:52Z</time>
      </trkpt>
      <trkpt lat="43.85029" lon="7.32113">
        <ele>569.71850585938</ele>
        <time>2013-05-12T08:21:54Z</time>
      </trkpt>
      <trkpt lat="43.85026" lon="7.32095">
        <ele>567.79565429688</ele>
        <time>2013-05-12T08:21:59Z</time>
      </trkpt>
      <trkpt lat="43.85026" lon="7.32092">
        <ele>567.31518554688</ele>
        <time>2013-05-12T08:22:00Z</time>
      </trkpt>
      <trkpt lat="43.85029" lon="7.32087">
        <ele>565.392578125</ele>
        <time>2013-05-12T08:22:03Z</time>
      </trkpt>
      <trkpt lat="43.85025" lon="7.32236">
        <ele>562.02807617188</ele>
        <time>2013-05-12T08:22:11Z</time>
      </trkpt>
      <trkpt lat="43.85021" lon="7.32254">
        <ele>560.10522460938</ele>
        <time>2013-05-12T08:22:15Z</time>
      </trkpt>
      <trkpt lat="43.8502" lon="7.32269">
        <ele>560.10522460938</ele>
        <time>2013-05-12T08:22:17Z</time>
      </trkpt>
      <trkpt lat="43.8501" lon="7.32295">
        <ele>557.7021484375</ele>
        <time>2013-05-12T08:22:22Z</time>
      </trkpt>
      <trkpt lat="43.85009" lon="7.32306">
        <ele>556.26000976562</ele>
        <time>2013-05-12T08:22:24Z</time>
      </trkpt>
      <trkpt lat="43.85009" lon="7.32326">
        <ele>554.33740234375</ele>
        <time>2013-05-12T08:22:28Z</time>
      </trkpt>
      <trkpt lat="43.85011" lon="7.3234">
        <ele>552.89526367188</ele>
        <time>2013-05-12T08:22:31Z</time>
      </trkpt>
      <trkpt lat="43.85019" lon="7.32357">
        <ele>550.4921875</ele>
        <time>2013-05-12T08:22:35Z</time>
      </trkpt>
      <trkpt lat="43.85029" lon="7.3237">
        <ele>549.05004882812</ele>
        <time>2013-05-12T08:22:38Z</time>
      </trkpt>
      <trkpt lat="43.85045" lon="7.32386">
        <ele>546.64685058594</ele>
        <time>2013-05-12T08:22:43Z</time>
      </trkpt>
      <trkpt lat="43.85051" lon="7.32393">
        <ele>546.16625976562</ele>
        <time>2013-05-12T08:22:45Z</time>
      </trkpt>
      <trkpt lat="43.85066" lon="7.32405">
        <ele>544.24365234375</ele>
        <time>2013-05-12T08:22:50Z</time>
      </trkpt>
      <trkpt lat="43.85083" lon="7.32419">
        <ele>542.32092285156</ele>
        <time>2013-05-12T08:22:55Z</time>
      </trkpt>
      <trkpt lat="43.85108" lon="7.32457">
        <ele>538.47570800781</ele>
        <time>2013-05-12T08:23:05Z</time>
      </trkpt>
      <trkpt lat="43.85111" lon="7.32459">
        <ele>538.47570800781</ele>
        <time>2013-05-12T08:23:06Z</time>
      </trkpt>
      <trkpt lat="43.85105" lon="7.32492">
        <ele>538.95629882812</ele>
        <time>2013-05-12T08:23:14Z</time>
      </trkpt>
      <trkpt lat="43.85084" lon="7.32532">
        <ele>538.47570800781</ele>
        <time>2013-05-12T08:23:27Z</time>
      </trkpt>
      <trkpt lat="43.85069" lon="7.32552">
        <ele>537.51428222656</ele>
        <time>2013-05-12T08:23:34Z</time>
      </trkpt>
      <trkpt lat="43.85063" lon="7.32561">
        <ele>537.03369140625</ele>
        <time>2013-05-12T08:23:37Z</time>
      </trkpt>
      <trkpt lat="43.85055" lon="7.32572">
        <ele>535.11096191406</ele>
        <time>2013-05-12T08:23:40Z</time>
      </trkpt>
      <trkpt lat="43.85039" lon="7.32591">
        <ele>531.26574707031</ele>
        <time>2013-05-12T08:23:48Z</time>
      </trkpt>
      <trkpt lat="43.85032" lon="7.32596">
        <ele>528.3818359375</ele>
        <time>2013-05-12T08:23:51Z</time>
      </trkpt>
      <trkpt lat="43.85027" lon="7.32604">
        <ele>528.3818359375</ele>
        <time>2013-05-12T08:23:52Z</time>
      </trkpt>
      <trkpt lat="43.84999" lon="7.32651">
        <ele>526.93981933594</ele>
        <time>2013-05-12T08:24:03Z</time>
      </trkpt>
      <trkpt lat="43.84998" lon="7.32656">
        <ele>526.45910644531</ele>
        <time>2013-05-12T08:24:04Z</time>
      </trkpt>
      <trkpt lat="43.84995" lon="7.32673">
        <ele>524.53649902344</ele>
        <time>2013-05-12T08:24:08Z</time>
      </trkpt>
      <trkpt lat="43.84995" lon="7.32677">
        <ele>523.5751953125</ele>
        <time>2013-05-12T08:24:09Z</time>
      </trkpt>
      <trkpt lat="43.84995" lon="7.32685">
        <ele>524.05578613281</ele>
        <time>2013-05-12T08:24:11Z</time>
      </trkpt>
      <trkpt lat="43.84993" lon="7.32702">
        <ele>522.61389160156</ele>
        <time>2013-05-12T08:24:15Z</time>
      </trkpt>
      <trkpt lat="43.84991" lon="7.32712">
        <ele>521.17199707031</ele>
        <time>2013-05-12T08:24:17Z</time>
      </trkpt>
      <trkpt lat="43.84988" lon="7.32728">
        <ele>519.24926757812</ele>
        <time>2013-05-12T08:24:20Z</time>
      </trkpt>
      <trkpt lat="43.84974" lon="7.32753">
        <ele>516.365234375</ele>
        <time>2013-05-12T08:24:26Z</time>
      </trkpt>
      <trkpt lat="43.84972" lon="7.32764">
        <ele>515.40405273438</ele>
        <time>2013-05-12T08:24:29Z</time>
      </trkpt>
      <trkpt lat="43.8497" lon="7.32774">
        <ele>513.4814453125</ele>
        <time>2013-05-12T08:24:31Z</time>
      </trkpt>
      <trkpt lat="43.8497" lon="7.32786">
        <ele>512.03942871094</ele>
        <time>2013-05-12T08:24:33Z</time>
      </trkpt>
      <trkpt lat="43.84967" lon="7.32807">
        <ele>510.59729003906</ele>
        <time>2013-05-12T08:24:37Z</time>
      </trkpt>
      <trkpt lat="43.84958" lon="7.32807">
        <ele>509.15539550781</ele>
        <time>2013-05-12T08:24:41Z</time>
      </trkpt>
      <trkpt lat="43.84952" lon="7.32803">
        <ele>508.19409179688</ele>
        <time>2013-05-12T08:24:44Z</time>
      </trkpt>
      <trkpt lat="43.84938" lon="7.32806">
        <ele>505.31018066406</ele>
        <time>2013-05-12T08:24:49Z</time>
      </trkpt>
      <trkpt lat="43.8493" lon="7.32809">
        <ele>502.90673828125</ele>
        <time>2013-05-12T08:24:52Z</time>
      </trkpt>
      <trkpt lat="43.84929" lon="7.3281">
        <ele>500.98413085938</ele>
        <time>2013-05-12T08:24:56Z</time>
      </trkpt>
      <trkpt lat="43.84929" lon="7.3281">
        <ele>499.0615234375</ele>
        <time>2013-05-12T08:24:59Z</time>
      </trkpt>
      <trkpt lat="43.84929" lon="7.3281">
        <ele>496.65832519531</ele>
        <time>2013-05-12T08:25:03Z</time>
      </trkpt>
      <trkpt lat="43.84929" lon="7.3281">
        <ele>493.77429199219</ele>
        <time>2013-05-12T08:25:05Z</time>
      </trkpt>
      <trkpt lat="43.84879" lon="7.32822">
        <ele>493.77429199219</ele>
        <time>2013-05-12T08:25:06Z</time>
      </trkpt>
      <trkpt lat="43.84875" lon="7.32824">
        <ele>491.85168457031</ele>
        <time>2013-05-12T08:25:07Z</time>
      </trkpt>
      <trkpt lat="43.84868" lon="7.32826">
        <ele>490.40979003906</ele>
        <time>2013-05-12T08:25:10Z</time>
      </trkpt>
      <trkpt lat="43.84865" lon="7.32826">
        <ele>489.44836425781</ele>
        <time>2013-05-12T08:25:11Z</time>
      </trkpt>
      <trkpt lat="43.84858" lon="7.32828">
        <ele>487.52563476562</ele>
        <time>2013-05-12T08:25:13Z</time>
      </trkpt>
      <trkpt lat="43.84855" lon="7.32829">
        <ele>486.08374023438</ele>
        <time>2013-05-12T08:25:14Z</time>
      </trkpt>
      <trkpt lat="43.84848" lon="7.32828">
        <ele>484.64184570312</ele>
        <time>2013-05-12T08:25:17Z</time>
      </trkpt>
      <trkpt lat="43.84837" lon="7.32833">
        <ele>481.27722167969</ele>
        <time>2013-05-12T08:25:20Z</time>
      </trkpt>
      <trkpt lat="43.84834" lon="7.32832">
        <ele>480.31591796875</ele>
        <time>2013-05-12T08:25:21Z</time>
      </trkpt>
      <trkpt lat="43.8482" lon="7.3283">
        <ele>477.43188476562</ele>
        <time>2013-05-12T08:25:26Z</time>
      </trkpt>
      <trkpt lat="43.84813" lon="7.32824">
        <ele>474.54797363281</ele>
        <time>2013-05-12T08:25:29Z</time>
      </trkpt>
      <trkpt lat="43.84805" lon="7.32816">
        <ele>472.14465332031</ele>
        <time>2013-05-12T08:25:33Z</time>
      </trkpt>
      <trkpt lat="43.84802" lon="7.32809">
        <ele>470.22192382812</ele>
        <time>2013-05-12T08:25:35Z</time>
      </trkpt>
      <trkpt lat="43.848" lon="7.32807">
        <ele>469.2607421875</ele>
        <time>2013-05-12T08:25:36Z</time>
      </trkpt>
      <trkpt lat="43.84786" lon="7.32823">
        <ele>468.78002929688</ele>
        <time>2013-05-12T08:25:43Z</time>
      </trkpt>
      <trkpt lat="43.84781" lon="7.32829">
        <ele>468.29931640625</ele>
        <time>2013-05-12T08:25:45Z</time>
      </trkpt>
      <trkpt lat="43.8477" lon="7.32882">
        <ele>464.93481445312</ele>
        <time>2013-05-12T08:25:56Z</time>
      </trkpt>
      <trkpt lat="43.84768" lon="7.32889">
        <ele>463.49279785156</ele>
        <time>2013-05-12T08:25:58Z</time>
      </trkpt>
      <trkpt lat="43.84768" lon="7.32898">
        <ele>462.53137207031</ele>
        <time>2013-05-12T08:26:00Z</time>
      </trkpt>
      <trkpt lat="43.84768" lon="7.32905">
        <ele>460.60876464844</ele>
        <time>2013-05-12T08:26:02Z</time>
      </trkpt>
      <trkpt lat="43.84773" lon="7.32909">
        <ele>459.16687011719</ele>
        <time>2013-05-12T08:26:04Z</time>
      </trkpt>
      <trkpt lat="43.84772" lon="7.32919">
        <ele>456.28295898438</ele>
        <time>2013-05-12T08:26:07Z</time>
      </trkpt>
      <trkpt lat="43.84768" lon="7.32926">
        <ele>454.8408203125</ele>
        <time>2013-05-12T08:26:09Z</time>
      </trkpt>
      <trkpt lat="43.84766" lon="7.3293">
        <ele>453.87963867188</ele>
        <time>2013-05-12T08:26:10Z</time>
      </trkpt>
      <trkpt lat="43.8476" lon="7.32934">
        <ele>452.43762207031</ele>
        <time>2013-05-12T08:26:14Z</time>
      </trkpt>
      <trkpt lat="43.84757" lon="7.32935">
        <ele>453.87963867188</ele>
        <time>2013-05-12T08:26:19Z</time>
      </trkpt>
      <trkpt lat="43.84756" lon="7.32939">
        <ele>455.32153320312</ele>
        <time>2013-05-12T08:26:21Z</time>
      </trkpt>
      <trkpt lat="43.84754" lon="7.32941">
        <ele>454.8408203125</ele>
        <time>2013-05-12T08:26:22Z</time>
      </trkpt>
      <trkpt lat="43.84736" lon="7.32964">
        <ele>455.80224609375</ele>
        <time>2013-05-12T08:26:35Z</time>
      </trkpt>
      <trkpt lat="43.84727" lon="7.32981">
        <ele>455.32153320312</ele>
        <time>2013-05-12T08:26:42Z</time>
      </trkpt>
      <trkpt lat="43.8473" lon="7.33002">
        <ele>454.8408203125</ele>
        <time>2013-05-12T08:26:47Z</time>
      </trkpt>
      <trkpt lat="43.84728" lon="7.33023">
        <ele>454.8408203125</ele>
        <time>2013-05-12T08:26:52Z</time>
      </trkpt>
      <trkpt lat="43.84727" lon="7.33063">
        <ele>454.36022949219</ele>
        <time>2013-05-12T08:27:00Z</time>
      </trkpt>
      <trkpt lat="43.84737" lon="7.33094">
        <ele>454.8408203125</ele>
        <time>2013-05-12T08:27:07Z</time>
      </trkpt>
      <trkpt lat="43.8474" lon="7.33109">
        <ele>453.39892578125</ele>
        <time>2013-05-12T08:27:10Z</time>
      </trkpt>
      <trkpt lat="43.84728" lon="7.33138">
        <ele>451.47631835938</ele>
        <time>2013-05-12T08:27:17Z</time>
      </trkpt>
      <trkpt lat="43.84732" lon="7.33183">
        <ele>448.11181640625</ele>
        <time>2013-05-12T08:27:28Z</time>
      </trkpt>
      <trkpt lat="43.84755" lon="7.33204">
        <ele>446.66967773438</ele>
        <time>2013-05-12T08:27:32Z</time>
      </trkpt>
      <trkpt lat="43.84752" lon="7.33226">
        <ele>445.70837402344</ele>
        <time>2013-05-12T08:27:37Z</time>
      </trkpt>
      <trkpt lat="43.84762" lon="7.33245">
        <ele>444.26647949219</ele>
        <time>2013-05-12T08:27:42Z</time>
      </trkpt>
      <trkpt lat="43.84766" lon="7.33286">
        <ele>441.86315917969</ele>
        <time>2013-05-12T08:27:51Z</time>
      </trkpt>
      <trkpt lat="43.8477" lon="7.33297">
        <ele>441.38244628906</ele>
        <time>2013-05-12T08:27:54Z</time>
      </trkpt>
      <trkpt lat="43.84766" lon="7.33325">
        <ele>439.45971679688</ele>
        <time>2013-05-12T08:28:01Z</time>
      </trkpt>
      <trkpt lat="43.84768" lon="7.3336">
        <ele>438.01782226562</ele>
        <time>2013-05-12T08:28:08Z</time>
      </trkpt>
      <trkpt lat="43.8475" lon="7.33393">
        <ele>435.61450195312</ele>
        <time>2013-05-12T08:28:20Z</time>
      </trkpt>
      <trkpt lat="43.84747" lon="7.33405">
        <ele>435.13391113281</ele>
        <time>2013-05-12T08:28:26Z</time>
      </trkpt>
      <trkpt lat="43.84748" lon="7.33442">
        <ele>432.73071289062</ele>
        <time>2013-05-12T08:28:34Z</time>
      </trkpt>
      <trkpt lat="43.84745" lon="7.33451">
        <ele>432.25</ele>
        <time>2013-05-12T08:28:36Z</time>
      </trkpt>
      <trkpt lat="43.8474" lon="7.33461">
        <ele>431.28857421875</ele>
        <time>2013-05-12T08:28:40Z</time>
      </trkpt>
      <trkpt lat="43.84728" lon="7.33479">
        <ele>430.80798339844</ele>
        <time>2013-05-12T08:28:46Z</time>
      </trkpt>
      <trkpt lat="43.84728" lon="7.33503">
        <ele>428.88537597656</ele>
        <time>2013-05-12T08:28:52Z</time>
      </trkpt>
      <trkpt lat="43.84724" lon="7.3352">
        <ele>428.40466308594</ele>
        <time>2013-05-12T08:28:57Z</time>
      </trkpt>
      <trkpt lat="43.84733" lon="7.33561">
        <ele>426.96276855469</ele>
        <time>2013-05-12T08:29:09Z</time>
      </trkpt>
      <trkpt lat="43.84735" lon="7.33616">
        <ele>424.55944824219</ele>
        <time>2013-05-12T08:29:21Z</time>
      </trkpt>
      <trkpt lat="43.84729" lon="7.33635">
        <ele>423.59802246094</ele>
        <time>2013-05-12T08:29:26Z</time>
      </trkpt>
      <trkpt lat="43.8473" lon="7.33652">
        <ele>421.67541503906</ele>
        <time>2013-05-12T08:29:30Z</time>
      </trkpt>
      <trkpt lat="43.84731" lon="7.33656">
        <ele>421.19482421875</ele>
        <time>2013-05-12T08:29:31Z</time>
      </trkpt>
      <trkpt lat="43.84729" lon="7.3367">
        <ele>420.71411132812</ele>
        <time>2013-05-12T08:29:36Z</time>
      </trkpt>
      <trkpt lat="43.84714" lon="7.33688">
        <ele>422.15600585938</ele>
        <time>2013-05-12T08:29:40Z</time>
      </trkpt>
      <trkpt lat="43.84721" lon="7.33702">
        <ele>421.67541503906</ele>
        <time>2013-05-12T08:29:44Z</time>
      </trkpt>
      <trkpt lat="43.84724" lon="7.33743">
        <ele>419.75280761719</ele>
        <time>2013-05-12T08:29:55Z</time>
      </trkpt>
      <trkpt lat="43.84725" lon="7.33758">
        <ele>418.79150390625</ele>
        <time>2013-05-12T08:30:01Z</time>
      </trkpt>
      <trkpt lat="43.84718" lon="7.33788">
        <ele>416.38818359375</ele>
        <time>2013-05-12T08:30:12Z</time>
      </trkpt>
      <trkpt lat="43.8472" lon="7.33794">
        <ele>415.42687988281</ele>
        <time>2013-05-12T08:30:16Z</time>
      </trkpt>
      <trkpt lat="43.84718" lon="7.33795">
        <ele>414.94616699219</ele>
        <time>2013-05-12T08:30:19Z</time>
      </trkpt>
      <trkpt lat="43.8471" lon="7.33814">
        <ele>413.98486328125</ele>
        <time>2013-05-12T08:30:26Z</time>
      </trkpt>
      <trkpt lat="43.84705" lon="7.33827">
        <ele>413.98486328125</ele>
        <time>2013-05-12T08:30:29Z</time>
      </trkpt>
      <trkpt lat="43.84694" lon="7.33841">
        <ele>414.46545410156</ele>
        <time>2013-05-12T08:30:36Z</time>
      </trkpt>
      <trkpt lat="43.84685" lon="7.33855">
        <ele>414.94616699219</ele>
        <time>2013-05-12T08:30:41Z</time>
      </trkpt>
      <trkpt lat="43.84686" lon="7.33863">
        <ele>414.94616699219</ele>
        <time>2013-05-12T08:30:43Z</time>
      </trkpt>
      <trkpt lat="43.84678" lon="7.33873">
        <ele>413.98486328125</ele>
        <time>2013-05-12T08:30:48Z</time>
      </trkpt>
      <trkpt lat="43.84669" lon="7.3391">
        <ele>413.98486328125</ele>
        <time>2013-05-12T08:30:57Z</time>
      </trkpt>
      <trkpt lat="43.8465" lon="7.33912">
        <ele>414.94616699219</ele>
        <time>2013-05-12T08:31:05Z</time>
      </trkpt>
      <trkpt lat="43.8464" lon="7.33932">
        <ele>414.46545410156</ele>
        <time>2013-05-12T08:31:09Z</time>
      </trkpt>
      <trkpt lat="43.84642" lon="7.33939">
        <ele>414.94616699219</ele>
        <time>2013-05-12T08:31:11Z</time>
      </trkpt>
      <trkpt lat="43.84623" lon="7.33941">
        <ele>414.94616699219</ele>
        <time>2013-05-12T08:31:23Z</time>
      </trkpt>
      <trkpt lat="43.84619" lon="7.33944">
        <ele>414.94616699219</ele>
        <time>2013-05-12T08:31:26Z</time>
      </trkpt>
      <trkpt lat="43.84617" lon="7.33991">
        <ele>414.94616699219</ele>
        <time>2013-05-12T08:31:36Z</time>
      </trkpt>
      <trkpt lat="43.84613" lon="7.33998">
        <ele>414.46545410156</ele>
        <time>2013-05-12T08:31:40Z</time>
      </trkpt>
      <trkpt lat="43.84605" lon="7.34009">
        <ele>414.94616699219</ele>
        <time>2013-05-12T08:31:44Z</time>
      </trkpt>
      <trkpt lat="43.84581" lon="7.34014">
        <ele>412.54284667969</ele>
        <time>2013-05-12T08:31:56Z</time>
      </trkpt>
      <trkpt lat="43.84569" lon="7.34014">
        <ele>411.58166503906</ele>
        <time>2013-05-12T08:32:00Z</time>
      </trkpt>
      <trkpt lat="43.84536" lon="7.34028">
        <ele>408.69763183594</ele>
        <time>2013-05-12T08:32:13Z</time>
      </trkpt>
      <trkpt lat="43.84524" lon="7.34033">
        <ele>408.21704101562</ele>
        <time>2013-05-12T08:32:16Z</time>
      </trkpt>
      <trkpt lat="43.84514" lon="7.34034">
        <ele>408.69763183594</ele>
        <time>2013-05-12T08:32:20Z</time>
      </trkpt>
      <trkpt lat="43.84504" lon="7.34037">
        <ele>406.29431152344</ele>
        <time>2013-05-12T08:32:24Z</time>
      </trkpt>
      <trkpt lat="43.84494" lon="7.34052">
        <ele>404.37170410156</ele>
        <time>2013-05-12T08:32:30Z</time>
      </trkpt>
      <trkpt lat="43.84448" lon="7.34097">
        <ele>401.48779296875</ele>
        <time>2013-05-12T08:32:43Z</time>
      </trkpt>
      <trkpt lat="43.84439" lon="7.34115">
        <ele>400.0458984375</ele>
        <time>2013-05-12T08:32:47Z</time>
      </trkpt>
      <trkpt lat="43.84435" lon="7.34126">
        <ele>398.60375976562</ele>
        <time>2013-05-12T08:32:49Z</time>
      </trkpt>
      <trkpt lat="43.84431" lon="7.34138">
        <ele>398.12316894531</ele>
        <time>2013-05-12T08:32:54Z</time>
      </trkpt>
      <trkpt lat="43.84423" lon="7.34169">
        <ele>395.71984863281</ele>
        <time>2013-05-12T08:33:03Z</time>
      </trkpt>
      <trkpt lat="43.84422" lon="7.34174">
        <ele>395.71984863281</ele>
        <time>2013-05-12T08:33:04Z</time>
      </trkpt>
      <trkpt lat="43.84421" lon="7.3418">
        <ele>394.75854492188</ele>
        <time>2013-05-12T08:33:06Z</time>
      </trkpt>
      <trkpt lat="43.84395" lon="7.34211">
        <ele>393.31652832031</ele>
        <time>2013-05-12T08:33:15Z</time>
      </trkpt>
      <trkpt lat="43.84363" lon="7.3421">
        <ele>390.91320800781</ele>
        <time>2013-05-12T08:33:21Z</time>
      </trkpt>
      <trkpt lat="43.84335" lon="7.34186">
        <ele>388.029296875</ele>
        <time>2013-05-12T08:33:28Z</time>
      </trkpt>
      <trkpt lat="43.8432" lon="7.34183">
        <ele>385.14538574219</ele>
        <time>2013-05-12T08:33:34Z</time>
      </trkpt>
      <trkpt lat="43.84318" lon="7.34183">
        <ele>384.18408203125</ele>
        <time>2013-05-12T08:33:36Z</time>
      </trkpt>
      <trkpt lat="43.84315" lon="7.34178">
        <ele>380.81945800781</ele>
        <time>2013-05-12T08:33:41Z</time>
      </trkpt>
      <trkpt lat="43.84315" lon="7.34178">
        <ele>377.93542480469</ele>
        <time>2013-05-12T08:33:44Z</time>
      </trkpt>
      <trkpt lat="43.84315" lon="7.34178">
        <ele>377.93542480469</ele>
        <time>2013-05-12T08:33:45Z</time>
      </trkpt>
      <trkpt lat="43.84315" lon="7.34178">
        <ele>376.01281738281</ele>
        <time>2013-05-12T08:33:49Z</time>
      </trkpt>
      <trkpt lat="43.84315" lon="7.34178">
        <ele>378.89685058594</ele>
        <time>2013-05-12T08:33:59Z</time>
      </trkpt>
      <trkpt lat="43.84293" lon="7.34187">
        <ele>380.81945800781</ele>
        <time>2013-05-12T08:34:06Z</time>
      </trkpt>
      <trkpt lat="43.8429" lon="7.34183">
        <ele>382.74206542969</ele>
        <time>2013-05-12T08:34:10Z</time>
      </trkpt>
      <trkpt lat="43.8429" lon="7.34183">
        <ele>383.70324707031</ele>
        <time>2013-05-12T08:34:11Z</time>
      </trkpt>
      <trkpt lat="43.84286" lon="7.34185">
        <ele>384.66479492188</ele>
        <time>2013-05-12T08:34:13Z</time>
      </trkpt>
      <trkpt lat="43.84277" lon="7.34193">
        <ele>388.029296875</ele>
        <time>2013-05-12T08:34:22Z</time>
      </trkpt>
      <trkpt lat="43.84277" lon="7.34193">
        <ele>388.99060058594</ele>
        <time>2013-05-12T08:34:24Z</time>
      </trkpt>
      <trkpt lat="43.84277" lon="7.34193">
        <ele>388.99060058594</ele>
        <time>2013-05-12T08:34:26Z</time>
      </trkpt>
      <trkpt lat="43.84277" lon="7.34193">
        <ele>390.4326171875</ele>
        <time>2013-05-12T08:34:31Z</time>
      </trkpt>
      <trkpt lat="43.84278" lon="7.34222">
        <ele>394.27795410156</ele>
        <time>2013-05-12T08:34:47Z</time>
      </trkpt>
      <trkpt lat="43.84278" lon="7.34222">
        <ele>394.27795410156</ele>
        <time>2013-05-12T08:34:48Z</time>
      </trkpt>
      <trkpt lat="43.84285" lon="7.3426">
        <ele>398.12316894531</ele>
        <time>2013-05-12T08:35:02Z</time>
      </trkpt>
      <trkpt lat="43.84285" lon="7.3426">
        <ele>399.08435058594</ele>
        <time>2013-05-12T08:35:06Z</time>
      </trkpt>
      <trkpt lat="43.84282" lon="7.34276">
        <ele>400.0458984375</ele>
        <time>2013-05-12T08:35:10Z</time>
      </trkpt>
      <trkpt lat="43.84281" lon="7.34282">
        <ele>400.52648925781</ele>
        <time>2013-05-12T08:35:13Z</time>
      </trkpt>
      <trkpt lat="43.84279" lon="7.34289">
        <ele>401.48779296875</ele>
        <time>2013-05-12T08:35:17Z</time>
      </trkpt>
      <trkpt lat="43.84271" lon="7.34312">
        <ele>403.41040039062</ele>
        <time>2013-05-12T08:35:24Z</time>
      </trkpt>
      <trkpt lat="43.84256" lon="7.3437">
        <ele>400.52648925781</ele>
        <time>2013-05-12T08:35:37Z</time>
      </trkpt>
      <trkpt lat="43.84217" lon="7.34414">
        <ele>397.16174316406</ele>
        <time>2013-05-12T08:35:51Z</time>
      </trkpt>
      <trkpt lat="43.84204" lon="7.34427">
        <ele>395.23913574219</ele>
        <time>2013-05-12T08:35:55Z</time>
      </trkpt>
      <trkpt lat="43.84161" lon="7.34485">
        <ele>394.27795410156</ele>
        <time>2013-05-12T08:36:11Z</time>
      </trkpt>
      <trkpt lat="43.84132" lon="7.34541">
        <ele>394.75854492188</ele>
        <time>2013-05-12T08:36:25Z</time>
      </trkpt>
      <trkpt lat="43.84109" lon="7.34597">
        <ele>390.91320800781</ele>
        <time>2013-05-12T08:36:38Z</time>
      </trkpt>
      <trkpt lat="43.84107" lon="7.34629">
        <ele>388.99060058594</ele>
        <time>2013-05-12T08:36:44Z</time>
      </trkpt>
      <trkpt lat="43.84107" lon="7.34637">
        <ele>387.54858398438</ele>
        <time>2013-05-12T08:36:46Z</time>
      </trkpt>
      <trkpt lat="43.84095" lon="7.34651">
        <ele>384.18408203125</ele>
        <time>2013-05-12T08:36:50Z</time>
      </trkpt>
      <trkpt lat="43.84091" lon="7.34653">
        <ele>384.18408203125</ele>
        <time>2013-05-12T08:36:51Z</time>
      </trkpt>
      <trkpt lat="43.8407" lon="7.34667">
        <ele>381.30004882812</ele>
        <time>2013-05-12T08:36:57Z</time>
      </trkpt>
      <trkpt lat="43.84062" lon="7.34672">
        <ele>380.33874511719</ele>
        <time>2013-05-12T08:36:59Z</time>
      </trkpt>
      <trkpt lat="43.84049" lon="7.34692">
        <ele>377.45483398438</ele>
        <time>2013-05-12T08:37:04Z</time>
      </trkpt>
      <trkpt lat="43.84039" lon="7.34705">
        <ele>376.97424316406</ele>
        <time>2013-05-12T08:37:07Z</time>
      </trkpt>
      <trkpt lat="43.84033" lon="7.34741">
        <ele>374.09008789062</ele>
        <time>2013-05-12T08:37:12Z</time>
      </trkpt>
      <trkpt lat="43.84037" lon="7.34783">
        <ele>370.7255859375</ele>
        <time>2013-05-12T08:37:18Z</time>
      </trkpt>
      <trkpt lat="43.84038" lon="7.34789">
        <ele>370.7255859375</ele>
        <time>2013-05-12T08:37:19Z</time>
      </trkpt>
      <trkpt lat="43.84027" lon="7.34803">
        <ele>368.322265625</ele>
        <time>2013-05-12T08:37:23Z</time>
      </trkpt>
      <trkpt lat="43.84024" lon="7.34802">
        <ele>365.9189453125</ele>
        <time>2013-05-12T08:37:24Z</time>
      </trkpt>
      <trkpt lat="43.84002" lon="7.34788">
        <ele>363.99633789062</ele>
        <time>2013-05-12T08:37:30Z</time>
      </trkpt>
      <trkpt lat="43.83995" lon="7.34784">
        <ele>362.55432128906</ele>
        <time>2013-05-12T08:37:32Z</time>
      </trkpt>
      <trkpt lat="43.83985" lon="7.34781">
        <ele>361.11242675781</ele>
        <time>2013-05-12T08:37:35Z</time>
      </trkpt>
      <trkpt lat="43.83967" lon="7.34784">
        <ele>357.74780273438</ele>
        <time>2013-05-12T08:37:41Z</time>
      </trkpt>
      <trkpt lat="43.83961" lon="7.34787">
        <ele>356.78637695312</ele>
        <time>2013-05-12T08:37:43Z</time>
      </trkpt>
      <trkpt lat="43.83921" lon="7.34809">
        <ele>355.34448242188</ele>
        <time>2013-05-12T08:37:54Z</time>
      </trkpt>
      <trkpt lat="43.83911" lon="7.34812">
        <ele>354.86376953125</ele>
        <time>2013-05-12T08:37:57Z</time>
      </trkpt>
      <trkpt lat="43.83862" lon="7.34847">
        <ele>354.86376953125</ele>
        <time>2013-05-12T08:38:11Z</time>
      </trkpt>
      <trkpt lat="43.83821" lon="7.34867">
        <ele>355.34448242188</ele>
        <time>2013-05-12T08:38:23Z</time>
      </trkpt>
      <trkpt lat="43.83802" lon="7.34875">
        <ele>354.38317871094</ele>
        <time>2013-05-12T08:38:30Z</time>
      </trkpt>
      <trkpt lat="43.83777" lon="7.34905">
        <ele>354.38317871094</ele>
        <time>2013-05-12T08:38:38Z</time>
      </trkpt>
      <trkpt lat="43.8376" lon="7.34999">
        <ele>353.90258789062</ele>
        <time>2013-05-12T08:38:57Z</time>
      </trkpt>
      <trkpt lat="43.83729" lon="7.35083">
        <ele>353.421875</ele>
        <time>2013-05-12T08:39:16Z</time>
      </trkpt>
      <trkpt lat="43.83721" lon="7.35107">
        <ele>352.94116210938</ele>
        <time>2013-05-12T08:39:23Z</time>
      </trkpt>
      <trkpt lat="43.83726" lon="7.35106">
        <ele>351.49914550781</ele>
        <time>2013-05-12T08:39:28Z</time>
      </trkpt>
      <trkpt lat="43.83731" lon="7.35097">
        <ele>350.53784179688</ele>
        <time>2013-05-12T08:39:30Z</time>
      </trkpt>
      <trkpt lat="43.83729" lon="7.35083">
        <ele>349.57653808594</ele>
        <time>2013-05-12T08:39:32Z</time>
      </trkpt>
      <trkpt lat="43.83744" lon="7.35094">
        <ele>347.65393066406</ele>
        <time>2013-05-12T08:39:35Z</time>
      </trkpt>
      <trkpt lat="43.83742" lon="7.351">
        <ele>346.21203613281</ele>
        <time>2013-05-12T08:39:37Z</time>
      </trkpt>
      <trkpt lat="43.83741" lon="7.35104">
        <ele>346.21203613281</ele>
        <time>2013-05-12T08:39:38Z</time>
      </trkpt>
      <trkpt lat="43.83736" lon="7.35114">
        <ele>345.73132324219</ele>
        <time>2013-05-12T08:39:41Z</time>
      </trkpt>
      <trkpt lat="43.83725" lon="7.35181">
        <ele>345.25061035156</ele>
        <time>2013-05-12T08:39:56Z</time>
      </trkpt>
      <trkpt lat="43.83703" lon="7.3514">
        <ele>344.77001953125</ele>
        <time>2013-05-12T08:40:07Z</time>
      </trkpt>
      <trkpt lat="43.83737" lon="7.35233">
        <ele>345.25061035156</ele>
        <time>2013-05-12T08:40:11Z</time>
      </trkpt>
      <trkpt lat="43.83665" lon="7.35179">
        <ele>344.77001953125</ele>
        <time>2013-05-12T08:40:19Z</time>
      </trkpt>
      <trkpt lat="43.83639" lon="7.35204">
        <ele>344.28942871094</ele>
        <time>2013-05-12T08:40:29Z</time>
      </trkpt>
      <trkpt lat="43.83601" lon="7.35245">
        <ele>344.28942871094</ele>
        <time>2013-05-12T08:40:38Z</time>
      </trkpt>
      <trkpt lat="43.83616" lon="7.35301">
        <ele>345.73132324219</ele>
        <time>2013-05-12T08:40:40Z</time>
      </trkpt>
      <trkpt lat="43.83616" lon="7.35301">
        <ele>345.73132324219</ele>
        <time>2013-05-12T08:40:41Z</time>
      </trkpt>
      <trkpt lat="43.83616" lon="7.35301">
        <ele>345.73132324219</ele>
        <time>2013-05-12T08:40:43Z</time>
      </trkpt>
      <trkpt lat="43.83598" lon="7.35334">
        <ele>344.77001953125</ele>
        <time>2013-05-12T08:40:56Z</time>
      </trkpt>
      <trkpt lat="43.83592" lon="7.35344">
        <ele>345.25061035156</ele>
        <time>2013-05-12T08:41:00Z</time>
      </trkpt>
      <trkpt lat="43.83585" lon="7.35355">
        <ele>344.77001953125</ele>
        <time>2013-05-12T08:41:05Z</time>
      </trkpt>
      <trkpt lat="43.83578" lon="7.35365">
        <ele>346.21203613281</ele>
        <time>2013-05-12T08:41:07Z</time>
      </trkpt>
      <trkpt lat="43.83546" lon="7.35382">
        <ele>346.21203613281</ele>
        <time>2013-05-12T08:41:21Z</time>
      </trkpt>
      <trkpt lat="43.83546" lon="7.35382">
        <ele>346.69262695312</ele>
        <time>2013-05-12T08:41:30Z</time>
      </trkpt>
      <trkpt lat="43.83542" lon="7.35387">
        <ele>346.21203613281</ele>
        <time>2013-05-12T08:41:37Z</time>
      </trkpt>
    </trkseg>
  </trk>
</gpx>